<?xml version="1.0" encoding="UTF-8" standalone="no" ?>
<gpx xmlns="http://www.topografix.com/GPX/1/1" xmlns:xsi="http://www.w3.org/2001/XMLSchema-instance" xsi:schemaLocation="http://www.topografix.com/GPX/1/1 http://www.topografix.com/GPX/1/1/gpx.xsd" version="1.1" creator="VisuGPX - https://www.visugpx.com">
  <metadata>
    <name>Caucalières lundi 30 nov. 2020 à 13:53</name>
  </metadata>
  <trk>
    <name><![CDATA[Caucalières lundi 30 nov. 2020 à 13:53]]></name>
    <trkseg>
      <trkpt lat="43.52801" lon="2.30152">
        <ele>185.70111027222</ele>
        <time>2020-11-30T12:53:50Z</time>
      </trkpt>
      <trkpt lat="43.52794" lon="2.30157">
        <ele>200.34557475074</ele>
        <time>2020-11-30T12:53:57Z</time>
      </trkpt>
      <trkpt lat="43.52788" lon="2.30165">
        <ele>199.40601708127</ele>
        <time>2020-11-30T12:54:08Z</time>
      </trkpt>
      <trkpt lat="43.52781" lon="2.30172">
        <ele>198.31647981133</ele>
        <time>2020-11-30T12:54:19Z</time>
      </trkpt>
      <trkpt lat="43.52776" lon="2.30182">
        <ele>193.79792384076</ele>
        <time>2020-11-30T12:54:32Z</time>
      </trkpt>
      <trkpt lat="43.52773" lon="2.30193">
        <ele>193.10714289753</ele>
        <time>2020-11-30T12:54:39Z</time>
      </trkpt>
      <trkpt lat="43.52773" lon="2.30205">
        <ele>192.68879482027</ele>
        <time>2020-11-30T12:54:46Z</time>
      </trkpt>
      <trkpt lat="43.52774" lon="2.30217">
        <ele>193.68659054043</ele>
        <time>2020-11-30T12:54:54Z</time>
      </trkpt>
      <trkpt lat="43.52773" lon="2.30228">
        <ele>193.6270871879</ele>
        <time>2020-11-30T12:55:01Z</time>
      </trkpt>
      <trkpt lat="43.52772" lon="2.30239">
        <ele>194.41922433177</ele>
        <time>2020-11-30T12:55:09Z</time>
      </trkpt>
      <trkpt lat="43.52769" lon="2.30251">
        <ele>195.58587655714</ele>
        <time>2020-11-30T12:55:16Z</time>
      </trkpt>
      <trkpt lat="43.52768" lon="2.30263">
        <ele>196.01539081986</ele>
        <time>2020-11-30T12:55:24Z</time>
      </trkpt>
      <trkpt lat="43.52768" lon="2.30275">
        <ele>195.507688916</ele>
        <time>2020-11-30T12:55:31Z</time>
      </trkpt>
      <trkpt lat="43.52766" lon="2.30286">
        <ele>193.22427489527</ele>
        <time>2020-11-30T12:55:38Z</time>
      </trkpt>
      <trkpt lat="43.52766" lon="2.30297">
        <ele>191.11253083082</ele>
        <time>2020-11-30T12:55:45Z</time>
      </trkpt>
      <trkpt lat="43.52763" lon="2.30308">
        <ele>190.41876946994</ele>
        <time>2020-11-30T12:55:52Z</time>
      </trkpt>
      <trkpt lat="43.52758" lon="2.30318">
        <ele>191.37101999447</ele>
        <time>2020-11-30T12:55:59Z</time>
      </trkpt>
      <trkpt lat="43.52758" lon="2.3033">
        <ele>192.30811234607</ele>
        <time>2020-11-30T12:56:06Z</time>
      </trkpt>
      <trkpt lat="43.52755" lon="2.30341">
        <ele>193.12410877891</ele>
        <time>2020-11-30T12:56:12Z</time>
      </trkpt>
      <trkpt lat="43.52754" lon="2.30352">
        <ele>192.2096687677</ele>
        <time>2020-11-30T12:56:20Z</time>
      </trkpt>
      <trkpt lat="43.52752" lon="2.30363">
        <ele>191.61934855639</ele>
        <time>2020-11-30T12:56:28Z</time>
      </trkpt>
      <trkpt lat="43.5275" lon="2.30374">
        <ele>191.91817556037</ele>
        <time>2020-11-30T12:56:35Z</time>
      </trkpt>
      <trkpt lat="43.5275" lon="2.30386">
        <ele>193.57037771553</ele>
        <time>2020-11-30T12:56:43Z</time>
      </trkpt>
      <trkpt lat="43.5275" lon="2.30397">
        <ele>194.49368863148</ele>
        <time>2020-11-30T12:56:51Z</time>
      </trkpt>
      <trkpt lat="43.52749" lon="2.30409">
        <ele>195.87235627526</ele>
        <time>2020-11-30T12:57:02Z</time>
      </trkpt>
      <trkpt lat="43.52748" lon="2.30421">
        <ele>195.86546429952</ele>
        <time>2020-11-30T12:57:11Z</time>
      </trkpt>
      <trkpt lat="43.52745" lon="2.30433">
        <ele>195.66089530444</ele>
        <time>2020-11-30T12:57:18Z</time>
      </trkpt>
      <trkpt lat="43.52743" lon="2.30443">
        <ele>196.9058689505</ele>
        <time>2020-11-30T12:57:27Z</time>
      </trkpt>
      <trkpt lat="43.52746" lon="2.30455">
        <ele>197.50338829887</ele>
        <time>2020-11-30T12:57:35Z</time>
      </trkpt>
      <trkpt lat="43.52746" lon="2.30467">
        <ele>197.96354121492</ele>
        <time>2020-11-30T12:57:43Z</time>
      </trkpt>
      <trkpt lat="43.52746" lon="2.30478">
        <ele>200.10073129083</ele>
        <time>2020-11-30T12:57:50Z</time>
      </trkpt>
      <trkpt lat="43.52747" lon="2.3049">
        <ele>200.45890198408</ele>
        <time>2020-11-30T12:57:57Z</time>
      </trkpt>
      <trkpt lat="43.52747" lon="2.30502">
        <ele>200.7177021225</ele>
        <time>2020-11-30T12:58:05Z</time>
      </trkpt>
      <trkpt lat="43.52746" lon="2.30513">
        <ele>200.8581380585</ele>
        <time>2020-11-30T12:58:15Z</time>
      </trkpt>
      <trkpt lat="43.52749" lon="2.30525">
        <ele>201.95431659399</ele>
        <time>2020-11-30T12:58:23Z</time>
      </trkpt>
      <trkpt lat="43.52752" lon="2.30535">
        <ele>201.89743346872</ele>
        <time>2020-11-30T12:58:31Z</time>
      </trkpt>
      <trkpt lat="43.52757" lon="2.30544">
        <ele>202.05721066331</ele>
        <time>2020-11-30T12:58:39Z</time>
      </trkpt>
      <trkpt lat="43.52762" lon="2.30552">
        <ele>201.98172741588</ele>
        <time>2020-11-30T12:58:45Z</time>
      </trkpt>
      <trkpt lat="43.52767" lon="2.30561">
        <ele>201.67066034229</ele>
        <time>2020-11-30T12:58:52Z</time>
      </trkpt>
      <trkpt lat="43.52772" lon="2.30571">
        <ele>203.10946151331</ele>
        <time>2020-11-30T12:59:00Z</time>
      </trkpt>
      <trkpt lat="43.52774" lon="2.30582">
        <ele>203.99475768989</ele>
        <time>2020-11-30T12:59:08Z</time>
      </trkpt>
      <trkpt lat="43.52778" lon="2.30593">
        <ele>205.42571041725</ele>
        <time>2020-11-30T12:59:16Z</time>
      </trkpt>
      <trkpt lat="43.52781" lon="2.30603">
        <ele>205.93813442461</ele>
        <time>2020-11-30T12:59:27Z</time>
      </trkpt>
      <trkpt lat="43.52784" lon="2.30613">
        <ele>205.14254724514</ele>
        <time>2020-11-30T12:59:34Z</time>
      </trkpt>
      <trkpt lat="43.52789" lon="2.30622">
        <ele>206.32968117499</ele>
        <time>2020-11-30T12:59:45Z</time>
      </trkpt>
      <trkpt lat="43.52794" lon="2.30631">
        <ele>207.15563490106</ele>
        <time>2020-11-30T12:59:53Z</time>
      </trkpt>
      <trkpt lat="43.52799" lon="2.30641">
        <ele>208.14727303659</ele>
        <time>2020-11-30T13:00:02Z</time>
      </trkpt>
      <trkpt lat="43.52802" lon="2.30652">
        <ele>208.56503341515</ele>
        <time>2020-11-30T13:00:09Z</time>
      </trkpt>
      <trkpt lat="43.52805" lon="2.30663">
        <ele>207.45057839914</ele>
        <time>2020-11-30T13:00:16Z</time>
      </trkpt>
      <trkpt lat="43.52809" lon="2.30673">
        <ele>207.48589887706</ele>
        <time>2020-11-30T13:00:23Z</time>
      </trkpt>
      <trkpt lat="43.52813" lon="2.30683">
        <ele>204.62696174816</ele>
        <time>2020-11-30T13:00:30Z</time>
      </trkpt>
      <trkpt lat="43.52819" lon="2.30693">
        <ele>203.41865160544</ele>
        <time>2020-11-30T13:00:37Z</time>
      </trkpt>
      <trkpt lat="43.52822" lon="2.30703">
        <ele>203.78737929076</ele>
        <time>2020-11-30T13:00:44Z</time>
      </trkpt>
      <trkpt lat="43.52825" lon="2.30713">
        <ele>204.170752983</ele>
        <time>2020-11-30T13:00:54Z</time>
      </trkpt>
      <trkpt lat="43.52828" lon="2.30723">
        <ele>203.4445961128</ele>
        <time>2020-11-30T13:01:01Z</time>
      </trkpt>
      <trkpt lat="43.52833" lon="2.30732">
        <ele>201.0853673314</ele>
        <time>2020-11-30T13:01:08Z</time>
      </trkpt>
      <trkpt lat="43.52838" lon="2.30742">
        <ele>198.93130081513</ele>
        <time>2020-11-30T13:01:15Z</time>
      </trkpt>
      <trkpt lat="43.52842" lon="2.30752">
        <ele>198.29012462073</ele>
        <time>2020-11-30T13:01:22Z</time>
      </trkpt>
      <trkpt lat="43.52845" lon="2.30763">
        <ele>199.83356525783</ele>
        <time>2020-11-30T13:01:29Z</time>
      </trkpt>
      <trkpt lat="43.52849" lon="2.30774">
        <ele>200.85093603897</ele>
        <time>2020-11-30T13:01:38Z</time>
      </trkpt>
      <trkpt lat="43.52852" lon="2.30785">
        <ele>200.36462468468</ele>
        <time>2020-11-30T13:01:46Z</time>
      </trkpt>
      <trkpt lat="43.52855" lon="2.30795">
        <ele>200.39012916505</ele>
        <time>2020-11-30T13:01:53Z</time>
      </trkpt>
      <trkpt lat="43.52859" lon="2.30805">
        <ele>200.199811012</ele>
        <time>2020-11-30T13:02:00Z</time>
      </trkpt>
      <trkpt lat="43.52864" lon="2.30815">
        <ele>199.12849693754</ele>
        <time>2020-11-30T13:02:08Z</time>
      </trkpt>
      <trkpt lat="43.52868" lon="2.30825">
        <ele>196.94859803342</ele>
        <time>2020-11-30T13:02:17Z</time>
      </trkpt>
      <trkpt lat="43.52874" lon="2.30835">
        <ele>195.38289514996</ele>
        <time>2020-11-30T13:02:25Z</time>
      </trkpt>
      <trkpt lat="43.5288" lon="2.30843">
        <ele>195.26148898921</ele>
        <time>2020-11-30T13:02:35Z</time>
      </trkpt>
      <trkpt lat="43.52886" lon="2.30851">
        <ele>195.6760635244</ele>
        <time>2020-11-30T13:02:42Z</time>
      </trkpt>
      <trkpt lat="43.52891" lon="2.3086">
        <ele>196.21529274646</ele>
        <time>2020-11-30T13:02:48Z</time>
      </trkpt>
      <trkpt lat="43.52897" lon="2.30869">
        <ele>197.00062682636</ele>
        <time>2020-11-30T13:02:56Z</time>
      </trkpt>
      <trkpt lat="43.52903" lon="2.30876">
        <ele>196.64086696756</ele>
        <time>2020-11-30T13:03:03Z</time>
      </trkpt>
      <trkpt lat="43.5291" lon="2.30883">
        <ele>194.62805251081</ele>
        <time>2020-11-30T13:03:09Z</time>
      </trkpt>
      <trkpt lat="43.52914" lon="2.30893">
        <ele>195.03696954108</ele>
        <time>2020-11-30T13:03:17Z</time>
      </trkpt>
      <trkpt lat="43.52918" lon="2.30903">
        <ele>194.07781674314</ele>
        <time>2020-11-30T13:03:23Z</time>
      </trkpt>
      <trkpt lat="43.52924" lon="2.3091">
        <ele>195.21302035772</ele>
        <time>2020-11-30T13:03:29Z</time>
      </trkpt>
      <trkpt lat="43.52931" lon="2.30915">
        <ele>195.94304412122</ele>
        <time>2020-11-30T13:04:31Z</time>
      </trkpt>
      <trkpt lat="43.52936" lon="2.30925">
        <ele>195.37601952631</ele>
        <time>2020-11-30T13:04:37Z</time>
      </trkpt>
      <trkpt lat="43.52942" lon="2.30934">
        <ele>195.5440979448</ele>
        <time>2020-11-30T13:04:44Z</time>
      </trkpt>
      <trkpt lat="43.52947" lon="2.30942">
        <ele>195.08457338188</ele>
        <time>2020-11-30T13:04:51Z</time>
      </trkpt>
      <trkpt lat="43.52953" lon="2.30951">
        <ele>195.11801913651</ele>
        <time>2020-11-30T13:04:58Z</time>
      </trkpt>
      <trkpt lat="43.52959" lon="2.3096">
        <ele>196.10038374195</ele>
        <time>2020-11-30T13:05:05Z</time>
      </trkpt>
      <trkpt lat="43.52961" lon="2.30971">
        <ele>199.27581322972</ele>
        <time>2020-11-30T13:05:14Z</time>
      </trkpt>
      <trkpt lat="43.52965" lon="2.30981">
        <ele>200.81106386743</ele>
        <time>2020-11-30T13:05:22Z</time>
      </trkpt>
      <trkpt lat="43.52971" lon="2.3099">
        <ele>199.34428442275</ele>
        <time>2020-11-30T13:05:30Z</time>
      </trkpt>
      <trkpt lat="43.52974" lon="2.31">
        <ele>197.95993362425</ele>
        <time>2020-11-30T13:05:37Z</time>
      </trkpt>
      <trkpt lat="43.5298" lon="2.31009">
        <ele>196.95865267795</ele>
        <time>2020-11-30T13:05:43Z</time>
      </trkpt>
      <trkpt lat="43.52984" lon="2.3102">
        <ele>198.7986700929</ele>
        <time>2020-11-30T13:05:48Z</time>
      </trkpt>
      <trkpt lat="43.52991" lon="2.31028">
        <ele>200.5297805389</ele>
        <time>2020-11-30T13:05:54Z</time>
      </trkpt>
      <trkpt lat="43.52995" lon="2.31038">
        <ele>200.17702943245</ele>
        <time>2020-11-30T13:06:01Z</time>
      </trkpt>
      <trkpt lat="43.53" lon="2.31049">
        <ele>199.45135669053</ele>
        <time>2020-11-30T13:06:10Z</time>
      </trkpt>
      <trkpt lat="43.53004" lon="2.31058">
        <ele>198.55960895625</ele>
        <time>2020-11-30T13:06:17Z</time>
      </trkpt>
      <trkpt lat="43.53007" lon="2.31069">
        <ele>198.6666343632</ele>
        <time>2020-11-30T13:06:24Z</time>
      </trkpt>
      <trkpt lat="43.53014" lon="2.31076">
        <ele>199.8888755931</ele>
        <time>2020-11-30T13:06:31Z</time>
      </trkpt>
      <trkpt lat="43.53019" lon="2.31085">
        <ele>200.22110551391</ele>
        <time>2020-11-30T13:06:40Z</time>
      </trkpt>
      <trkpt lat="43.53026" lon="2.31091">
        <ele>201.01903227758</ele>
        <time>2020-11-30T13:06:47Z</time>
      </trkpt>
      <trkpt lat="43.53033" lon="2.31099">
        <ele>202.09568639662</ele>
        <time>2020-11-30T13:06:52Z</time>
      </trkpt>
      <trkpt lat="43.53035" lon="2.3111">
        <ele>205.28902333228</ele>
        <time>2020-11-30T13:07:01Z</time>
      </trkpt>
      <trkpt lat="43.5304" lon="2.31118">
        <ele>206.37336660163</ele>
        <time>2020-11-30T13:07:09Z</time>
      </trkpt>
      <trkpt lat="43.53045" lon="2.31129">
        <ele>206.5309342772</ele>
        <time>2020-11-30T13:07:15Z</time>
      </trkpt>
      <trkpt lat="43.53048" lon="2.31139">
        <ele>204.04432186106</ele>
        <time>2020-11-30T13:07:21Z</time>
      </trkpt>
      <trkpt lat="43.53051" lon="2.3115">
        <ele>205.10386367967</ele>
        <time>2020-11-30T13:07:27Z</time>
      </trkpt>
      <trkpt lat="43.53055" lon="2.3116">
        <ele>203.96573920869</ele>
        <time>2020-11-30T13:07:34Z</time>
      </trkpt>
      <trkpt lat="43.5306" lon="2.3117">
        <ele>205.31266720665</ele>
        <time>2020-11-30T13:07:40Z</time>
      </trkpt>
      <trkpt lat="43.53064" lon="2.3118">
        <ele>205.56442694938</ele>
        <time>2020-11-30T13:07:49Z</time>
      </trkpt>
      <trkpt lat="43.53068" lon="2.3119">
        <ele>203.62314760916</ele>
        <time>2020-11-30T13:07:57Z</time>
      </trkpt>
      <trkpt lat="43.53073" lon="2.312">
        <ele>203.40085741434</ele>
        <time>2020-11-30T13:08:03Z</time>
      </trkpt>
      <trkpt lat="43.53077" lon="2.31211">
        <ele>202.62718702116</ele>
        <time>2020-11-30T13:08:11Z</time>
      </trkpt>
      <trkpt lat="43.5308" lon="2.31222">
        <ele>200.58709207456</ele>
        <time>2020-11-30T13:08:18Z</time>
      </trkpt>
      <trkpt lat="43.53084" lon="2.31233">
        <ele>200.44239229542</ele>
        <time>2020-11-30T13:08:26Z</time>
      </trkpt>
      <trkpt lat="43.53089" lon="2.31242">
        <ele>200.35932821442</ele>
        <time>2020-11-30T13:08:33Z</time>
      </trkpt>
      <trkpt lat="43.53092" lon="2.31253">
        <ele>200.62502751629</ele>
        <time>2020-11-30T13:08:41Z</time>
      </trkpt>
      <trkpt lat="43.53095" lon="2.31264">
        <ele>201.01200612939</ele>
        <time>2020-11-30T13:08:48Z</time>
      </trkpt>
      <trkpt lat="43.53098" lon="2.31273">
        <ele>199.98500740632</ele>
        <time>2020-11-30T13:08:55Z</time>
      </trkpt>
      <trkpt lat="43.53102" lon="2.31284">
        <ele>200.69089499259</ele>
        <time>2020-11-30T13:09:02Z</time>
      </trkpt>
      <trkpt lat="43.53106" lon="2.31294">
        <ele>200.9892664616</ele>
        <time>2020-11-30T13:09:09Z</time>
      </trkpt>
      <trkpt lat="43.53111" lon="2.31303">
        <ele>201.31315572371</ele>
        <time>2020-11-30T13:09:16Z</time>
      </trkpt>
      <trkpt lat="43.53114" lon="2.31313">
        <ele>200.56228641353</ele>
        <time>2020-11-30T13:09:23Z</time>
      </trkpt>
      <trkpt lat="43.53117" lon="2.31324">
        <ele>203.05577650947</ele>
        <time>2020-11-30T13:09:31Z</time>
      </trkpt>
      <trkpt lat="43.5312" lon="2.31335">
        <ele>205.04939167524</ele>
        <time>2020-11-30T13:09:38Z</time>
      </trkpt>
      <trkpt lat="43.53124" lon="2.31346">
        <ele>205.92685325989</ele>
        <time>2020-11-30T13:09:45Z</time>
      </trkpt>
      <trkpt lat="43.53128" lon="2.31356">
        <ele>206.2400377372</ele>
        <time>2020-11-30T13:09:52Z</time>
      </trkpt>
      <trkpt lat="43.53131" lon="2.31366">
        <ele>207.80695832685</ele>
        <time>2020-11-30T13:09:58Z</time>
      </trkpt>
      <trkpt lat="43.53136" lon="2.31377">
        <ele>209.19136834788</ele>
        <time>2020-11-30T13:10:06Z</time>
      </trkpt>
      <trkpt lat="43.53139" lon="2.31388">
        <ele>209.01122693641</ele>
        <time>2020-11-30T13:10:13Z</time>
      </trkpt>
      <trkpt lat="43.53139" lon="2.31399">
        <ele>209.46469888692</ele>
        <time>2020-11-30T13:10:20Z</time>
      </trkpt>
      <trkpt lat="43.5314" lon="2.3141">
        <ele>209.25790915904</ele>
        <time>2020-11-30T13:10:27Z</time>
      </trkpt>
      <trkpt lat="43.53139" lon="2.31421">
        <ele>208.54997207882</ele>
        <time>2020-11-30T13:10:34Z</time>
      </trkpt>
      <trkpt lat="43.53139" lon="2.31433">
        <ele>207.38185770204</ele>
        <time>2020-11-30T13:10:40Z</time>
      </trkpt>
      <trkpt lat="43.5314" lon="2.31444">
        <ele>207.51581070857</ele>
        <time>2020-11-30T13:10:46Z</time>
      </trkpt>
      <trkpt lat="43.53141" lon="2.31455">
        <ele>208.73659157364</ele>
        <time>2020-11-30T13:10:54Z</time>
      </trkpt>
      <trkpt lat="43.53143" lon="2.31466">
        <ele>209.73861385933</ele>
        <time>2020-11-30T13:11:00Z</time>
      </trkpt>
      <trkpt lat="43.53145" lon="2.31478">
        <ele>210.84129840643</ele>
        <time>2020-11-30T13:11:07Z</time>
      </trkpt>
      <trkpt lat="43.53148" lon="2.3149">
        <ele>210.54156180686</ele>
        <time>2020-11-30T13:11:15Z</time>
      </trkpt>
      <trkpt lat="43.53152" lon="2.315">
        <ele>210.65177241745</ele>
        <time>2020-11-30T13:11:24Z</time>
      </trkpt>
      <trkpt lat="43.53158" lon="2.31509">
        <ele>210.10144187861</ele>
        <time>2020-11-30T13:11:31Z</time>
      </trkpt>
      <trkpt lat="43.53164" lon="2.31517">
        <ele>209.2313097816</ele>
        <time>2020-11-30T13:11:38Z</time>
      </trkpt>
      <trkpt lat="43.53169" lon="2.31527">
        <ele>207.07039289787</ele>
        <time>2020-11-30T13:11:45Z</time>
      </trkpt>
      <trkpt lat="43.53172" lon="2.31536">
        <ele>206.58956113</ele>
        <time>2020-11-30T13:11:51Z</time>
      </trkpt>
      <trkpt lat="43.53177" lon="2.31546">
        <ele>207.29693718203</ele>
        <time>2020-11-30T13:11:57Z</time>
      </trkpt>
      <trkpt lat="43.5318" lon="2.31555">
        <ele>208.31572678668</ele>
        <time>2020-11-30T13:12:03Z</time>
      </trkpt>
      <trkpt lat="43.53182" lon="2.31567">
        <ele>207.76987756795</ele>
        <time>2020-11-30T13:12:11Z</time>
      </trkpt>
      <trkpt lat="43.53186" lon="2.31577">
        <ele>207.19695848634</ele>
        <time>2020-11-30T13:12:18Z</time>
      </trkpt>
      <trkpt lat="43.53188" lon="2.31588">
        <ele>206.28569446139</ele>
        <time>2020-11-30T13:12:25Z</time>
      </trkpt>
      <trkpt lat="43.53192" lon="2.31598">
        <ele>205.88964265296</ele>
        <time>2020-11-30T13:12:32Z</time>
      </trkpt>
      <trkpt lat="43.53195" lon="2.31608">
        <ele>206.96937072553</ele>
        <time>2020-11-30T13:12:40Z</time>
      </trkpt>
      <trkpt lat="43.532" lon="2.31618">
        <ele>207.4084237836</ele>
        <time>2020-11-30T13:12:48Z</time>
      </trkpt>
      <trkpt lat="43.53205" lon="2.31629">
        <ele>207.85593419197</ele>
        <time>2020-11-30T13:12:56Z</time>
      </trkpt>
      <trkpt lat="43.53209" lon="2.31639">
        <ele>208.30973320932</ele>
        <time>2020-11-30T13:13:03Z</time>
      </trkpt>
      <trkpt lat="43.53215" lon="2.31647">
        <ele>207.253967229</ele>
        <time>2020-11-30T13:13:11Z</time>
      </trkpt>
      <trkpt lat="43.53222" lon="2.31652">
        <ele>206.78900125341</ele>
        <time>2020-11-30T13:13:17Z</time>
      </trkpt>
      <trkpt lat="43.53228" lon="2.31661">
        <ele>207.03061961607</ele>
        <time>2020-11-30T13:13:23Z</time>
      </trkpt>
      <trkpt lat="43.53233" lon="2.31671">
        <ele>206.61114273433</ele>
        <time>2020-11-30T13:13:32Z</time>
      </trkpt>
      <trkpt lat="43.53236" lon="2.31682">
        <ele>207.58936484919</ele>
        <time>2020-11-30T13:13:41Z</time>
      </trkpt>
      <trkpt lat="43.53243" lon="2.3169">
        <ele>208.3964261255</ele>
        <time>2020-11-30T13:13:51Z</time>
      </trkpt>
      <trkpt lat="43.53248" lon="2.31697">
        <ele>209.4670659849</ele>
        <time>2020-11-30T13:13:56Z</time>
      </trkpt>
      <trkpt lat="43.53256" lon="2.31703">
        <ele>210.49514655401</ele>
        <time>2020-11-30T13:14:05Z</time>
      </trkpt>
      <trkpt lat="43.5326" lon="2.31712">
        <ele>210.54036859927</ele>
        <time>2020-11-30T13:14:11Z</time>
      </trkpt>
      <trkpt lat="43.53265" lon="2.31721">
        <ele>210.04264900987</ele>
        <time>2020-11-30T13:14:17Z</time>
      </trkpt>
      <trkpt lat="43.53269" lon="2.31731">
        <ele>208.69096009784</ele>
        <time>2020-11-30T13:14:23Z</time>
      </trkpt>
      <trkpt lat="43.53273" lon="2.31741">
        <ele>207.51676068123</ele>
        <time>2020-11-30T13:14:29Z</time>
      </trkpt>
      <trkpt lat="43.5328" lon="2.31747">
        <ele>205.10325717486</ele>
        <time>2020-11-30T13:14:34Z</time>
      </trkpt>
      <trkpt lat="43.53286" lon="2.31756">
        <ele>204.27994946405</ele>
        <time>2020-11-30T13:14:41Z</time>
      </trkpt>
      <trkpt lat="43.5329" lon="2.31766">
        <ele>204.7291381409</ele>
        <time>2020-11-30T13:14:48Z</time>
      </trkpt>
      <trkpt lat="43.53296" lon="2.31773">
        <ele>204.36153560316</ele>
        <time>2020-11-30T13:14:54Z</time>
      </trkpt>
      <trkpt lat="43.53303" lon="2.3178">
        <ele>205.01759620643</ele>
        <time>2020-11-30T13:15:00Z</time>
      </trkpt>
      <trkpt lat="43.53308" lon="2.31788">
        <ele>205.49984703235</ele>
        <time>2020-11-30T13:15:06Z</time>
      </trkpt>
      <trkpt lat="43.53314" lon="2.31797">
        <ele>205.45517554966</ele>
        <time>2020-11-30T13:15:13Z</time>
      </trkpt>
      <trkpt lat="43.53318" lon="2.31805">
        <ele>206.77730153156</ele>
        <time>2020-11-30T13:15:20Z</time>
      </trkpt>
      <trkpt lat="43.53322" lon="2.31817">
        <ele>207.89944239756</ele>
        <time>2020-11-30T13:15:26Z</time>
      </trkpt>
      <trkpt lat="43.53325" lon="2.31827">
        <ele>208.27031009647</ele>
        <time>2020-11-30T13:15:34Z</time>
      </trkpt>
      <trkpt lat="43.53328" lon="2.31838">
        <ele>208.40032577673</ele>
        <time>2020-11-30T13:15:43Z</time>
      </trkpt>
      <trkpt lat="43.53332" lon="2.31849">
        <ele>210.19666092409</ele>
        <time>2020-11-30T13:15:51Z</time>
      </trkpt>
      <trkpt lat="43.53337" lon="2.31858">
        <ele>210.71357960384</ele>
        <time>2020-11-30T13:15:59Z</time>
      </trkpt>
      <trkpt lat="43.53341" lon="2.31868">
        <ele>212.49001129709</ele>
        <time>2020-11-30T13:16:06Z</time>
      </trkpt>
      <trkpt lat="43.53345" lon="2.31878">
        <ele>214.58428076097</ele>
        <time>2020-11-30T13:16:14Z</time>
      </trkpt>
      <trkpt lat="43.53347" lon="2.3189">
        <ele>212.62421592538</ele>
        <time>2020-11-30T13:16:21Z</time>
      </trkpt>
      <trkpt lat="43.53351" lon="2.319">
        <ele>210.28649914718</ele>
        <time>2020-11-30T13:16:31Z</time>
      </trkpt>
      <trkpt lat="43.53351" lon="2.31911">
        <ele>212.18890106373</ele>
        <time>2020-11-30T13:16:38Z</time>
      </trkpt>
      <trkpt lat="43.53352" lon="2.31922">
        <ele>214.32835134508</ele>
        <time>2020-11-30T13:16:44Z</time>
      </trkpt>
      <trkpt lat="43.53352" lon="2.31934">
        <ele>216.79411165114</ele>
        <time>2020-11-30T13:16:51Z</time>
      </trkpt>
      <trkpt lat="43.53351" lon="2.31946">
        <ele>219.48742663917</ele>
        <time>2020-11-30T13:16:57Z</time>
      </trkpt>
      <trkpt lat="43.53355" lon="2.31956">
        <ele>219.81784728158</ele>
        <time>2020-11-30T13:17:06Z</time>
      </trkpt>
      <trkpt lat="43.53354" lon="2.31967">
        <ele>219.71882863948</ele>
        <time>2020-11-30T13:17:13Z</time>
      </trkpt>
      <trkpt lat="43.53357" lon="2.31978">
        <ele>217.37423908605</ele>
        <time>2020-11-30T13:17:19Z</time>
      </trkpt>
      <trkpt lat="43.53362" lon="2.31987">
        <ele>215.65207893848</ele>
        <time>2020-11-30T13:17:28Z</time>
      </trkpt>
      <trkpt lat="43.53368" lon="2.31993">
        <ele>214.44270019866</ele>
        <time>2020-11-30T13:17:34Z</time>
      </trkpt>
      <trkpt lat="43.53374" lon="2.32002">
        <ele>213.82231831553</ele>
        <time>2020-11-30T13:17:43Z</time>
      </trkpt>
      <trkpt lat="43.5338" lon="2.32011">
        <ele>213.48592179976</ele>
        <time>2020-11-30T13:17:50Z</time>
      </trkpt>
      <trkpt lat="43.53385" lon="2.3202">
        <ele>211.83006828983</ele>
        <time>2020-11-30T13:17:57Z</time>
      </trkpt>
      <trkpt lat="43.53392" lon="2.32027">
        <ele>211.55896366344</ele>
        <time>2020-11-30T13:18:07Z</time>
      </trkpt>
      <trkpt lat="43.534" lon="2.32032">
        <ele>211.92496516153</ele>
        <time>2020-11-30T13:18:15Z</time>
      </trkpt>
      <trkpt lat="43.53407" lon="2.32038">
        <ele>212.56922905505</ele>
        <time>2020-11-30T13:18:21Z</time>
      </trkpt>
      <trkpt lat="43.53414" lon="2.32044">
        <ele>212.21312791654</ele>
        <time>2020-11-30T13:18:29Z</time>
      </trkpt>
      <trkpt lat="43.53421" lon="2.32052">
        <ele>212.9468314479</ele>
        <time>2020-11-30T13:18:38Z</time>
      </trkpt>
      <trkpt lat="43.53427" lon="2.32058">
        <ele>214.47625561032</ele>
        <time>2020-11-30T13:18:43Z</time>
      </trkpt>
      <trkpt lat="43.53434" lon="2.32065">
        <ele>220.04956005868</ele>
        <time>2020-11-30T13:18:52Z</time>
      </trkpt>
      <trkpt lat="43.5344" lon="2.32069">
        <ele>219.88539398879</ele>
        <time>2020-11-30T13:19:02Z</time>
      </trkpt>
      <trkpt lat="43.53448" lon="2.32075">
        <ele>218.2388902014</ele>
        <time>2020-11-30T13:19:07Z</time>
      </trkpt>
      <trkpt lat="43.53456" lon="2.3208">
        <ele>217.7955848368</ele>
        <time>2020-11-30T13:19:12Z</time>
      </trkpt>
      <trkpt lat="43.53461" lon="2.32087">
        <ele>218.11563584382</ele>
        <time>2020-11-30T13:19:19Z</time>
      </trkpt>
      <trkpt lat="43.53467" lon="2.32095">
        <ele>219.10433896934</ele>
        <time>2020-11-30T13:19:24Z</time>
      </trkpt>
      <trkpt lat="43.53474" lon="2.32103">
        <ele>215.72253481884</ele>
        <time>2020-11-30T13:19:37Z</time>
      </trkpt>
      <trkpt lat="43.53482" lon="2.32106">
        <ele>214.89611378984</ele>
        <time>2020-11-30T13:19:43Z</time>
      </trkpt>
      <trkpt lat="43.53488" lon="2.32114">
        <ele>214.77418273366</ele>
        <time>2020-11-30T13:19:52Z</time>
      </trkpt>
      <trkpt lat="43.53495" lon="2.32122">
        <ele>215.19960530584</ele>
        <time>2020-11-30T13:19:59Z</time>
      </trkpt>
      <trkpt lat="43.53502" lon="2.32126">
        <ele>215.20568911555</ele>
        <time>2020-11-30T13:20:04Z</time>
      </trkpt>
      <trkpt lat="43.5351" lon="2.32128">
        <ele>215.1662237566</ele>
        <time>2020-11-30T13:20:08Z</time>
      </trkpt>
      <trkpt lat="43.53522" lon="2.32126">
        <ele>214.90666618262</ele>
        <time>2020-11-30T13:20:13Z</time>
      </trkpt>
      <trkpt lat="43.53529" lon="2.32129">
        <ele>214.41142037263</ele>
        <time>2020-11-30T13:20:22Z</time>
      </trkpt>
      <trkpt lat="43.53535" lon="2.32138">
        <ele>214.81044541007</ele>
        <time>2020-11-30T13:20:28Z</time>
      </trkpt>
      <trkpt lat="43.53542" lon="2.32145">
        <ele>214.64685922562</ele>
        <time>2020-11-30T13:20:40Z</time>
      </trkpt>
      <trkpt lat="43.5355" lon="2.3215">
        <ele>214.69503314918</ele>
        <time>2020-11-30T13:20:45Z</time>
      </trkpt>
      <trkpt lat="43.53556" lon="2.32156">
        <ele>215.200910787</ele>
        <time>2020-11-30T13:20:49Z</time>
      </trkpt>
      <trkpt lat="43.5356" lon="2.32166">
        <ele>216.69485843363</ele>
        <time>2020-11-30T13:20:58Z</time>
      </trkpt>
      <trkpt lat="43.53567" lon="2.32172">
        <ele>216.80295954896</ele>
        <time>2020-11-30T13:21:06Z</time>
      </trkpt>
      <trkpt lat="43.53573" lon="2.32181">
        <ele>216.30299177558</ele>
        <time>2020-11-30T13:21:16Z</time>
      </trkpt>
      <trkpt lat="43.53577" lon="2.3219">
        <ele>216.80520194228</ele>
        <time>2020-11-30T13:21:23Z</time>
      </trkpt>
      <trkpt lat="43.53581" lon="2.32201">
        <ele>218.29239143961</ele>
        <time>2020-11-30T13:21:32Z</time>
      </trkpt>
      <trkpt lat="43.53584" lon="2.32211">
        <ele>219.25578033845</ele>
        <time>2020-11-30T13:21:39Z</time>
      </trkpt>
      <trkpt lat="43.53587" lon="2.32226">
        <ele>220.99826627371</ele>
        <time>2020-11-30T13:21:43Z</time>
      </trkpt>
      <trkpt lat="43.53591" lon="2.32236">
        <ele>220.49498512338</ele>
        <time>2020-11-30T13:21:48Z</time>
      </trkpt>
      <trkpt lat="43.53597" lon="2.32243">
        <ele>219.86034842537</ele>
        <time>2020-11-30T13:21:55Z</time>
      </trkpt>
      <trkpt lat="43.53598" lon="2.32255">
        <ele>210.47179850414</ele>
        <time>2020-11-30T13:22:08Z</time>
      </trkpt>
      <trkpt lat="43.53605" lon="2.32259">
        <ele>208.31529250487</ele>
        <time>2020-11-30T13:22:16Z</time>
      </trkpt>
      <trkpt lat="43.53611" lon="2.32267">
        <ele>207.69954542392</ele>
        <time>2020-11-30T13:22:22Z</time>
      </trkpt>
      <trkpt lat="43.53613" lon="2.3228">
        <ele>207.36484713583</ele>
        <time>2020-11-30T13:22:26Z</time>
      </trkpt>
      <trkpt lat="43.53617" lon="2.32291">
        <ele>207.1505719034</ele>
        <time>2020-11-30T13:22:38Z</time>
      </trkpt>
      <trkpt lat="43.53615" lon="2.32303">
        <ele>206.58040860976</ele>
        <time>2020-11-30T13:22:44Z</time>
      </trkpt>
      <trkpt lat="43.53621" lon="2.32312">
        <ele>207.81379357644</ele>
        <time>2020-11-30T13:22:51Z</time>
      </trkpt>
      <trkpt lat="43.53619" lon="2.32322">
        <ele>208.51252106752</ele>
        <time>2020-11-30T13:22:59Z</time>
      </trkpt>
      <trkpt lat="43.5362" lon="2.32338">
        <ele>208.38635410429</ele>
        <time>2020-11-30T13:23:04Z</time>
      </trkpt>
      <trkpt lat="43.53627" lon="2.32345">
        <ele>208.39745702646</ele>
        <time>2020-11-30T13:23:09Z</time>
      </trkpt>
      <trkpt lat="43.53636" lon="2.3235">
        <ele>208.7498709383</ele>
        <time>2020-11-30T13:23:14Z</time>
      </trkpt>
      <trkpt lat="43.53634" lon="2.3236">
        <ele>208.57211179387</ele>
        <time>2020-11-30T13:23:21Z</time>
      </trkpt>
      <trkpt lat="43.53634" lon="2.32372">
        <ele>209.41979845304</ele>
        <time>2020-11-30T13:23:29Z</time>
      </trkpt>
      <trkpt lat="43.53637" lon="2.32382">
        <ele>212.06933277283</ele>
        <time>2020-11-30T13:23:39Z</time>
      </trkpt>
      <trkpt lat="43.53641" lon="2.32392">
        <ele>212.73785255983</ele>
        <time>2020-11-30T13:23:47Z</time>
      </trkpt>
      <trkpt lat="43.53644" lon="2.32403">
        <ele>213.31737395277</ele>
        <time>2020-11-30T13:23:55Z</time>
      </trkpt>
      <trkpt lat="43.53649" lon="2.32412">
        <ele>214.8072181159</ele>
        <time>2020-11-30T13:24:11Z</time>
      </trkpt>
      <trkpt lat="43.53654" lon="2.32423">
        <ele>214.14987591004</ele>
        <time>2020-11-30T13:24:16Z</time>
      </trkpt>
      <trkpt lat="43.53658" lon="2.32434">
        <ele>213.80039398081</ele>
        <time>2020-11-30T13:24:21Z</time>
      </trkpt>
      <trkpt lat="43.53662" lon="2.32445">
        <ele>213.14250033807</ele>
        <time>2020-11-30T13:24:27Z</time>
      </trkpt>
      <trkpt lat="43.53665" lon="2.32457">
        <ele>215.10211389832</ele>
        <time>2020-11-30T13:24:33Z</time>
      </trkpt>
      <trkpt lat="43.53669" lon="2.32467">
        <ele>215.88215237704</ele>
        <time>2020-11-30T13:24:40Z</time>
      </trkpt>
      <trkpt lat="43.53672" lon="2.32478">
        <ele>216.84581438172</ele>
        <time>2020-11-30T13:24:45Z</time>
      </trkpt>
      <trkpt lat="43.53678" lon="2.32485">
        <ele>216.71824655999</ele>
        <time>2020-11-30T13:24:53Z</time>
      </trkpt>
      <trkpt lat="43.53683" lon="2.32495">
        <ele>217.02761519319</ele>
        <time>2020-11-30T13:25:00Z</time>
      </trkpt>
      <trkpt lat="43.53687" lon="2.32505">
        <ele>217.66105375734</ele>
        <time>2020-11-30T13:25:07Z</time>
      </trkpt>
      <trkpt lat="43.53692" lon="2.32515">
        <ele>219.94364055274</ele>
        <time>2020-11-30T13:25:18Z</time>
      </trkpt>
      <trkpt lat="43.53698" lon="2.32523">
        <ele>221.53598619231</ele>
        <time>2020-11-30T13:25:25Z</time>
      </trkpt>
      <trkpt lat="43.53703" lon="2.32532">
        <ele>221.26714175842</ele>
        <time>2020-11-30T13:25:34Z</time>
      </trkpt>
      <trkpt lat="43.53711" lon="2.32536">
        <ele>220.24303085449</ele>
        <time>2020-11-30T13:25:44Z</time>
      </trkpt>
      <trkpt lat="43.53716" lon="2.32546">
        <ele>222.15129406546</ele>
        <time>2020-11-30T13:25:53Z</time>
      </trkpt>
      <trkpt lat="43.53725" lon="2.32546">
        <ele>222.09879292476</ele>
        <time>2020-11-30T13:26:15Z</time>
      </trkpt>
      <trkpt lat="43.53732" lon="2.32541">
        <ele>224.01361520451</ele>
        <time>2020-11-30T13:26:38Z</time>
      </trkpt>
      <trkpt lat="43.5374" lon="2.32537">
        <ele>229.70687249903</ele>
        <time>2020-11-30T13:28:44Z</time>
      </trkpt>
      <trkpt lat="43.53747" lon="2.3253">
        <ele>235.5328379364</ele>
        <time>2020-11-30T13:30:46Z</time>
      </trkpt>
      <trkpt lat="43.53754" lon="2.32522">
        <ele>235.63729449376</ele>
        <time>2020-11-30T13:31:31Z</time>
      </trkpt>
      <trkpt lat="43.53756" lon="2.32511">
        <ele>236.5079790143</ele>
        <time>2020-11-30T13:32:13Z</time>
      </trkpt>
      <trkpt lat="43.53759" lon="2.32494">
        <ele>237.99948233486</ele>
        <time>2020-11-30T13:32:17Z</time>
      </trkpt>
      <trkpt lat="43.53765" lon="2.32485">
        <ele>239.90897444087</ele>
        <time>2020-11-30T13:34:18Z</time>
      </trkpt>
      <trkpt lat="43.53771" lon="2.32479">
        <ele>241.90860205298</ele>
        <time>2020-11-30T13:36:15Z</time>
      </trkpt>
      <trkpt lat="43.53776" lon="2.32469">
        <ele>245.99033681566</ele>
        <time>2020-11-30T13:36:19Z</time>
      </trkpt>
      <trkpt lat="43.53774" lon="2.32457">
        <ele>249.06850395598</ele>
        <time>2020-11-30T13:36:27Z</time>
      </trkpt>
      <trkpt lat="43.53773" lon="2.32445">
        <ele>254.91794337194</ele>
        <time>2020-11-30T13:36:47Z</time>
      </trkpt>
      <trkpt lat="43.5378" lon="2.32442">
        <ele>266.16869070914</ele>
        <time>2020-11-30T13:37:58Z</time>
      </trkpt>
      <trkpt lat="43.53789" lon="2.32438">
        <ele>267.69556788321</ele>
        <time>2020-11-30T13:38:13Z</time>
      </trkpt>
      <trkpt lat="43.53797" lon="2.32433">
        <ele>271.33039768105</ele>
        <time>2020-11-30T13:38:31Z</time>
      </trkpt>
      <trkpt lat="43.53804" lon="2.32427">
        <ele>273.55290718528</ele>
        <time>2020-11-30T13:38:36Z</time>
      </trkpt>
      <trkpt lat="43.53811" lon="2.32421">
        <ele>275.78506349198</ele>
        <time>2020-11-30T13:38:43Z</time>
      </trkpt>
      <trkpt lat="43.53816" lon="2.32414">
        <ele>276.59316989133</ele>
        <time>2020-11-30T13:38:56Z</time>
      </trkpt>
      <trkpt lat="43.53823" lon="2.32406">
        <ele>278.96638320876</ele>
        <time>2020-11-30T13:39:00Z</time>
      </trkpt>
      <trkpt lat="43.53829" lon="2.32398">
        <ele>281.10727207629</ele>
        <time>2020-11-30T13:39:08Z</time>
      </trkpt>
      <trkpt lat="43.53833" lon="2.3239">
        <ele>282.8403830347</ele>
        <time>2020-11-30T13:39:30Z</time>
      </trkpt>
      <trkpt lat="43.53839" lon="2.32377">
        <ele>284.16620036872</ele>
        <time>2020-11-30T13:39:34Z</time>
      </trkpt>
      <trkpt lat="43.53851" lon="2.32362">
        <ele>285.90149676973</ele>
        <time>2020-11-30T13:39:39Z</time>
      </trkpt>
      <trkpt lat="43.53857" lon="2.32351">
        <ele>286.49881796482</ele>
        <time>2020-11-30T13:39:44Z</time>
      </trkpt>
      <trkpt lat="43.53864" lon="2.32344">
        <ele>294.12751871282</ele>
        <time>2020-11-30T13:39:59Z</time>
      </trkpt>
      <trkpt lat="43.53872" lon="2.3234">
        <ele>297.55129841316</ele>
        <time>2020-11-30T13:40:07Z</time>
      </trkpt>
      <trkpt lat="43.53877" lon="2.32332">
        <ele>298.74195813286</ele>
        <time>2020-11-30T13:40:16Z</time>
      </trkpt>
      <trkpt lat="43.53883" lon="2.32323">
        <ele>299.46041405494</ele>
        <time>2020-11-30T13:40:29Z</time>
      </trkpt>
      <trkpt lat="43.53889" lon="2.32318">
        <ele>299.48681007103</ele>
        <time>2020-11-30T13:40:34Z</time>
      </trkpt>
      <trkpt lat="43.53894" lon="2.32309">
        <ele>298.20634963965</ele>
        <time>2020-11-30T13:40:39Z</time>
      </trkpt>
      <trkpt lat="43.53899" lon="2.323">
        <ele>296.80130022161</ele>
        <time>2020-11-30T13:40:48Z</time>
      </trkpt>
      <trkpt lat="43.53904" lon="2.32292">
        <ele>296.80848999701</ele>
        <time>2020-11-30T13:40:54Z</time>
      </trkpt>
      <trkpt lat="43.5391" lon="2.32282">
        <ele>296.00399789316</ele>
        <time>2020-11-30T13:41:00Z</time>
      </trkpt>
      <trkpt lat="43.53914" lon="2.32272">
        <ele>295.65487309489</ele>
        <time>2020-11-30T13:41:06Z</time>
      </trkpt>
      <trkpt lat="43.53918" lon="2.32263">
        <ele>296.84085115487</ele>
        <time>2020-11-30T13:41:12Z</time>
      </trkpt>
      <trkpt lat="43.53923" lon="2.32253">
        <ele>295.18135548792</ele>
        <time>2020-11-30T13:41:20Z</time>
      </trkpt>
      <trkpt lat="43.53929" lon="2.32246">
        <ele>294.98774295853</ele>
        <time>2020-11-30T13:41:29Z</time>
      </trkpt>
      <trkpt lat="43.53933" lon="2.32236">
        <ele>296.42346171628</ele>
        <time>2020-11-30T13:41:40Z</time>
      </trkpt>
      <trkpt lat="43.53939" lon="2.32228">
        <ele>296.59946672399</ele>
        <time>2020-11-30T13:41:48Z</time>
      </trkpt>
      <trkpt lat="43.53946" lon="2.3222">
        <ele>297.00449387006</ele>
        <time>2020-11-30T13:41:55Z</time>
      </trkpt>
      <trkpt lat="43.53952" lon="2.32212">
        <ele>298.21652253248</ele>
        <time>2020-11-30T13:42:03Z</time>
      </trkpt>
      <trkpt lat="43.53958" lon="2.32204">
        <ele>298.99771539802</ele>
        <time>2020-11-30T13:42:13Z</time>
      </trkpt>
      <trkpt lat="43.53962" lon="2.32196">
        <ele>299.22064764022</ele>
        <time>2020-11-30T13:42:18Z</time>
      </trkpt>
      <trkpt lat="43.53967" lon="2.32186">
        <ele>298.94528379667</ele>
        <time>2020-11-30T13:42:24Z</time>
      </trkpt>
      <trkpt lat="43.53972" lon="2.32175">
        <ele>299.3632507415</ele>
        <time>2020-11-30T13:42:33Z</time>
      </trkpt>
      <trkpt lat="43.53977" lon="2.32168">
        <ele>299.59609811482</ele>
        <time>2020-11-30T13:42:42Z</time>
      </trkpt>
      <trkpt lat="43.53984" lon="2.32162">
        <ele>299.67051882707</ele>
        <time>2020-11-30T13:42:53Z</time>
      </trkpt>
      <trkpt lat="43.5399" lon="2.32154">
        <ele>297.90262857194</ele>
        <time>2020-11-30T13:43:24Z</time>
      </trkpt>
      <trkpt lat="43.5399" lon="2.32145">
        <ele>296.86093761113</ele>
        <time>2020-11-30T13:43:33Z</time>
      </trkpt>
      <trkpt lat="43.53993" lon="2.32135">
        <ele>294.52466617233</ele>
        <time>2020-11-30T13:43:58Z</time>
      </trkpt>
      <trkpt lat="43.54001" lon="2.32125">
        <ele>293.49584176951</ele>
        <time>2020-11-30T13:44:02Z</time>
      </trkpt>
      <trkpt lat="43.54006" lon="2.32117">
        <ele>294.26958529816</ele>
        <time>2020-11-30T13:44:15Z</time>
      </trkpt>
      <trkpt lat="43.54014" lon="2.32114">
        <ele>296.68185845246</ele>
        <time>2020-11-30T13:44:27Z</time>
      </trkpt>
      <trkpt lat="43.54021" lon="2.32107">
        <ele>298.63255713342</ele>
        <time>2020-11-30T13:44:38Z</time>
      </trkpt>
      <trkpt lat="43.54026" lon="2.32097">
        <ele>298.32676038641</ele>
        <time>2020-11-30T13:44:49Z</time>
      </trkpt>
      <trkpt lat="43.54031" lon="2.32088">
        <ele>300.52099492089</ele>
        <time>2020-11-30T13:45:01Z</time>
      </trkpt>
      <trkpt lat="43.54035" lon="2.32078">
        <ele>298.97197685158</ele>
        <time>2020-11-30T13:45:10Z</time>
      </trkpt>
      <trkpt lat="43.54043" lon="2.32065">
        <ele>298.07690695968</ele>
        <time>2020-11-30T13:45:15Z</time>
      </trkpt>
      <trkpt lat="43.5405" lon="2.32058">
        <ele>297.92412449413</ele>
        <time>2020-11-30T13:45:21Z</time>
      </trkpt>
      <trkpt lat="43.54058" lon="2.32054">
        <ele>297.22991274393</ele>
        <time>2020-11-30T13:45:31Z</time>
      </trkpt>
      <trkpt lat="43.54064" lon="2.32047">
        <ele>297.83367851928</ele>
        <time>2020-11-30T13:45:38Z</time>
      </trkpt>
      <trkpt lat="43.54072" lon="2.32042">
        <ele>296.91226934981</ele>
        <time>2020-11-30T13:45:45Z</time>
      </trkpt>
      <trkpt lat="43.54077" lon="2.32033">
        <ele>297.53496378591</ele>
        <time>2020-11-30T13:45:53Z</time>
      </trkpt>
      <trkpt lat="43.54081" lon="2.32023">
        <ele>296.18683161999</ele>
        <time>2020-11-30T13:46:00Z</time>
      </trkpt>
      <trkpt lat="43.54086" lon="2.32013">
        <ele>293.23586998182</ele>
        <time>2020-11-30T13:46:07Z</time>
      </trkpt>
      <trkpt lat="43.54091" lon="2.32004">
        <ele>291.64335875922</ele>
        <time>2020-11-30T13:46:14Z</time>
      </trkpt>
      <trkpt lat="43.54096" lon="2.31995">
        <ele>290.84936512498</ele>
        <time>2020-11-30T13:46:21Z</time>
      </trkpt>
      <trkpt lat="43.54101" lon="2.31985">
        <ele>289.30145973431</ele>
        <time>2020-11-30T13:46:28Z</time>
      </trkpt>
      <trkpt lat="43.54107" lon="2.31976">
        <ele>289.94932853323</ele>
        <time>2020-11-30T13:46:34Z</time>
      </trkpt>
      <trkpt lat="43.54112" lon="2.31967">
        <ele>289.87550013418</ele>
        <time>2020-11-30T13:46:42Z</time>
      </trkpt>
      <trkpt lat="43.54118" lon="2.31957">
        <ele>288.44109128112</ele>
        <time>2020-11-30T13:46:50Z</time>
      </trkpt>
      <trkpt lat="43.54122" lon="2.31949">
        <ele>286.73821980043</ele>
        <time>2020-11-30T13:46:57Z</time>
      </trkpt>
      <trkpt lat="43.54128" lon="2.3194">
        <ele>285.57632922242</ele>
        <time>2020-11-30T13:47:04Z</time>
      </trkpt>
      <trkpt lat="43.54134" lon="2.31931">
        <ele>285.69846249304</ele>
        <time>2020-11-30T13:47:10Z</time>
      </trkpt>
      <trkpt lat="43.5414" lon="2.31922">
        <ele>284.80246377156</ele>
        <time>2020-11-30T13:47:18Z</time>
      </trkpt>
      <trkpt lat="43.54145" lon="2.31912">
        <ele>284.58424272645</ele>
        <time>2020-11-30T13:47:24Z</time>
      </trkpt>
      <trkpt lat="43.54149" lon="2.31902">
        <ele>284.37233220345</ele>
        <time>2020-11-30T13:47:32Z</time>
      </trkpt>
      <trkpt lat="43.54152" lon="2.31891">
        <ele>286.14919797381</ele>
        <time>2020-11-30T13:47:44Z</time>
      </trkpt>
      <trkpt lat="43.54157" lon="2.31882">
        <ele>286.57729807582</ele>
        <time>2020-11-30T13:47:52Z</time>
      </trkpt>
      <trkpt lat="43.54161" lon="2.31871">
        <ele>288.1704577701</ele>
        <time>2020-11-30T13:48:01Z</time>
      </trkpt>
      <trkpt lat="43.54167" lon="2.31864">
        <ele>290.04777663017</ele>
        <time>2020-11-30T13:48:12Z</time>
      </trkpt>
      <trkpt lat="43.54173" lon="2.31855">
        <ele>289.07229712503</ele>
        <time>2020-11-30T13:48:17Z</time>
      </trkpt>
      <trkpt lat="43.54178" lon="2.31848">
        <ele>287.43067687103</ele>
        <time>2020-11-30T13:48:23Z</time>
      </trkpt>
      <trkpt lat="43.54181" lon="2.31837">
        <ele>285.12859609299</ele>
        <time>2020-11-30T13:48:30Z</time>
      </trkpt>
      <trkpt lat="43.54188" lon="2.31829">
        <ele>281.38345016802</ele>
        <time>2020-11-30T13:48:38Z</time>
      </trkpt>
      <trkpt lat="43.54196" lon="2.31824">
        <ele>280.80353903468</ele>
        <time>2020-11-30T13:48:56Z</time>
      </trkpt>
      <trkpt lat="43.5421" lon="2.31815">
        <ele>280.59810932338</ele>
        <time>2020-11-30T13:49:01Z</time>
      </trkpt>
      <trkpt lat="43.54219" lon="2.3181">
        <ele>282.30477858682</ele>
        <time>2020-11-30T13:49:05Z</time>
      </trkpt>
      <trkpt lat="43.54225" lon="2.31804">
        <ele>283.475903248</ele>
        <time>2020-11-30T13:49:10Z</time>
      </trkpt>
      <trkpt lat="43.54231" lon="2.31797">
        <ele>283.76864705159</ele>
        <time>2020-11-30T13:49:17Z</time>
      </trkpt>
      <trkpt lat="43.54238" lon="2.31789">
        <ele>284.29093488956</ele>
        <time>2020-11-30T13:49:24Z</time>
      </trkpt>
      <trkpt lat="43.54241" lon="2.31778">
        <ele>284.24612614976</ele>
        <time>2020-11-30T13:49:30Z</time>
      </trkpt>
      <trkpt lat="43.54245" lon="2.31768">
        <ele>282.73859348999</ele>
        <time>2020-11-30T13:49:38Z</time>
      </trkpt>
      <trkpt lat="43.54249" lon="2.31758">
        <ele>281.19755618393</ele>
        <time>2020-11-30T13:49:45Z</time>
      </trkpt>
      <trkpt lat="43.54254" lon="2.31748">
        <ele>280.40140404385</ele>
        <time>2020-11-30T13:49:54Z</time>
      </trkpt>
      <trkpt lat="43.54259" lon="2.31739">
        <ele>280.15504758525</ele>
        <time>2020-11-30T13:50:02Z</time>
      </trkpt>
      <trkpt lat="43.54266" lon="2.31733">
        <ele>281.62148355341</ele>
        <time>2020-11-30T13:50:09Z</time>
      </trkpt>
      <trkpt lat="43.54272" lon="2.31725">
        <ele>282.97546210168</ele>
        <time>2020-11-30T13:50:17Z</time>
      </trkpt>
      <trkpt lat="43.54274" lon="2.31713">
        <ele>278.76861154951</ele>
        <time>2020-11-30T13:50:25Z</time>
      </trkpt>
      <trkpt lat="43.54279" lon="2.31706">
        <ele>276.93563361835</ele>
        <time>2020-11-30T13:50:30Z</time>
      </trkpt>
      <trkpt lat="43.54285" lon="2.31697">
        <ele>276.12069081546</ele>
        <time>2020-11-30T13:50:35Z</time>
      </trkpt>
      <trkpt lat="43.54292" lon="2.31694">
        <ele>277.24248276823</ele>
        <time>2020-11-30T13:50:40Z</time>
      </trkpt>
      <trkpt lat="43.543" lon="2.3169">
        <ele>278.39460561598</ele>
        <time>2020-11-30T13:50:48Z</time>
      </trkpt>
      <trkpt lat="43.54306" lon="2.31681">
        <ele>278.01490437606</ele>
        <time>2020-11-30T13:50:56Z</time>
      </trkpt>
      <trkpt lat="43.54309" lon="2.31671">
        <ele>275.39117573426</ele>
        <time>2020-11-30T13:51:07Z</time>
      </trkpt>
      <trkpt lat="43.54314" lon="2.31662">
        <ele>275.52237665374</ele>
        <time>2020-11-30T13:51:14Z</time>
      </trkpt>
      <trkpt lat="43.54321" lon="2.31656">
        <ele>277.06563950677</ele>
        <time>2020-11-30T13:51:21Z</time>
      </trkpt>
      <trkpt lat="43.54327" lon="2.31649">
        <ele>278.58738149633</ele>
        <time>2020-11-30T13:51:27Z</time>
      </trkpt>
      <trkpt lat="43.54335" lon="2.31643">
        <ele>280.49089813387</ele>
        <time>2020-11-30T13:51:36Z</time>
      </trkpt>
      <trkpt lat="43.54341" lon="2.31636">
        <ele>281.4712687826</ele>
        <time>2020-11-30T13:51:43Z</time>
      </trkpt>
      <trkpt lat="43.54346" lon="2.31625">
        <ele>280.35400368524</ele>
        <time>2020-11-30T13:51:50Z</time>
      </trkpt>
      <trkpt lat="43.54351" lon="2.31616">
        <ele>282.57563874734</ele>
        <time>2020-11-30T13:51:58Z</time>
      </trkpt>
      <trkpt lat="43.54357" lon="2.31607">
        <ele>283.83713836238</ele>
        <time>2020-11-30T13:52:05Z</time>
      </trkpt>
      <trkpt lat="43.54362" lon="2.31599">
        <ele>281.39299813054</ele>
        <time>2020-11-30T13:52:12Z</time>
      </trkpt>
      <trkpt lat="43.54368" lon="2.3159">
        <ele>278.89717217416</ele>
        <time>2020-11-30T13:52:19Z</time>
      </trkpt>
      <trkpt lat="43.54374" lon="2.31585">
        <ele>277.42342802637</ele>
        <time>2020-11-30T13:52:24Z</time>
      </trkpt>
      <trkpt lat="43.54381" lon="2.31578">
        <ele>273.68424528765</ele>
        <time>2020-11-30T13:52:33Z</time>
      </trkpt>
      <trkpt lat="43.54387" lon="2.3157">
        <ele>270.57321373367</ele>
        <time>2020-11-30T13:52:42Z</time>
      </trkpt>
      <trkpt lat="43.54391" lon="2.3156">
        <ele>269.98388724045</ele>
        <time>2020-11-30T13:52:50Z</time>
      </trkpt>
      <trkpt lat="43.54395" lon="2.3155">
        <ele>271.14861174895</ele>
        <time>2020-11-30T13:52:56Z</time>
      </trkpt>
      <trkpt lat="43.544" lon="2.31541">
        <ele>271.71292965482</ele>
        <time>2020-11-30T13:53:07Z</time>
      </trkpt>
      <trkpt lat="43.54406" lon="2.31532">
        <ele>271.28800268566</ele>
        <time>2020-11-30T13:53:14Z</time>
      </trkpt>
      <trkpt lat="43.5441" lon="2.31524">
        <ele>271.58771508091</ele>
        <time>2020-11-30T13:53:27Z</time>
      </trkpt>
      <trkpt lat="43.54417" lon="2.31508">
        <ele>271.21571190974</ele>
        <time>2020-11-30T13:53:31Z</time>
      </trkpt>
      <trkpt lat="43.54421" lon="2.31498">
        <ele>270.62386234866</ele>
        <time>2020-11-30T13:53:40Z</time>
      </trkpt>
      <trkpt lat="43.54427" lon="2.31485">
        <ele>270.97292050966</ele>
        <time>2020-11-30T13:53:44Z</time>
      </trkpt>
      <trkpt lat="43.54432" lon="2.31476">
        <ele>271.2332192201</ele>
        <time>2020-11-30T13:53:49Z</time>
      </trkpt>
      <trkpt lat="43.54437" lon="2.31468">
        <ele>272.69755453641</ele>
        <time>2020-11-30T13:53:55Z</time>
      </trkpt>
      <trkpt lat="43.54442" lon="2.31459">
        <ele>271.31616250587</ele>
        <time>2020-11-30T13:54:08Z</time>
      </trkpt>
      <trkpt lat="43.5445" lon="2.31449">
        <ele>270.01682844584</ele>
        <time>2020-11-30T13:54:13Z</time>
      </trkpt>
      <trkpt lat="43.54457" lon="2.31441">
        <ele>270.16063006436</ele>
        <time>2020-11-30T13:54:18Z</time>
      </trkpt>
      <trkpt lat="43.54464" lon="2.31433">
        <ele>271.31636786836</ele>
        <time>2020-11-30T13:54:28Z</time>
      </trkpt>
      <trkpt lat="43.54469" lon="2.31424">
        <ele>271.46021987401</ele>
        <time>2020-11-30T13:54:36Z</time>
      </trkpt>
      <trkpt lat="43.54471" lon="2.31414">
        <ele>269.55009994528</ele>
        <time>2020-11-30T13:54:42Z</time>
      </trkpt>
      <trkpt lat="43.54477" lon="2.31404">
        <ele>268.81285926447</ele>
        <time>2020-11-30T13:54:49Z</time>
      </trkpt>
      <trkpt lat="43.54481" lon="2.31396">
        <ele>269.30618567449</ele>
        <time>2020-11-30T13:54:54Z</time>
      </trkpt>
      <trkpt lat="43.54487" lon="2.31387">
        <ele>268.33234664467</ele>
        <time>2020-11-30T13:55:00Z</time>
      </trkpt>
      <trkpt lat="43.54492" lon="2.31377">
        <ele>266.01621121721</ele>
        <time>2020-11-30T13:55:07Z</time>
      </trkpt>
      <trkpt lat="43.54496" lon="2.31368">
        <ele>264.6870085981</ele>
        <time>2020-11-30T13:55:12Z</time>
      </trkpt>
      <trkpt lat="43.545" lon="2.31358">
        <ele>263.43240569738</ele>
        <time>2020-11-30T13:55:18Z</time>
      </trkpt>
      <trkpt lat="43.54506" lon="2.31348">
        <ele>263.12554624554</ele>
        <time>2020-11-30T13:55:28Z</time>
      </trkpt>
      <trkpt lat="43.54511" lon="2.31338">
        <ele>262.61591574532</ele>
        <time>2020-11-30T13:55:37Z</time>
      </trkpt>
      <trkpt lat="43.54514" lon="2.31328">
        <ele>263.48530216109</ele>
        <time>2020-11-30T13:55:44Z</time>
      </trkpt>
      <trkpt lat="43.54517" lon="2.31317">
        <ele>262.0996278439</ele>
        <time>2020-11-30T13:55:53Z</time>
      </trkpt>
      <trkpt lat="43.54523" lon="2.31309">
        <ele>264.28978098041</ele>
        <time>2020-11-30T13:56:05Z</time>
      </trkpt>
      <trkpt lat="43.54528" lon="2.31299">
        <ele>265.8490321801</ele>
        <time>2020-11-30T13:56:17Z</time>
      </trkpt>
      <trkpt lat="43.54532" lon="2.3129">
        <ele>263.22617417804</ele>
        <time>2020-11-30T13:56:24Z</time>
      </trkpt>
      <trkpt lat="43.54537" lon="2.3128">
        <ele>263.21307533715</ele>
        <time>2020-11-30T13:56:30Z</time>
      </trkpt>
      <trkpt lat="43.54541" lon="2.31271">
        <ele>264.46012367043</ele>
        <time>2020-11-30T13:56:37Z</time>
      </trkpt>
      <trkpt lat="43.54544" lon="2.3126">
        <ele>264.28067693859</ele>
        <time>2020-11-30T13:56:43Z</time>
      </trkpt>
      <trkpt lat="43.54548" lon="2.31249">
        <ele>263.6928318739</ele>
        <time>2020-11-30T13:56:52Z</time>
      </trkpt>
      <trkpt lat="43.5455" lon="2.31242">
        <ele>263.19916588573</ele>
        <time>2020-11-30T13:57:10Z</time>
      </trkpt>
      <trkpt lat="43.54553" lon="2.31222">
        <ele>262.02709212149</ele>
        <time>2020-11-30T13:57:15Z</time>
      </trkpt>
      <trkpt lat="43.54555" lon="2.31212">
        <ele>260.1260560516</ele>
        <time>2020-11-30T13:57:20Z</time>
      </trkpt>
      <trkpt lat="43.54557" lon="2.312">
        <ele>257.82120898554</ele>
        <time>2020-11-30T13:57:26Z</time>
      </trkpt>
      <trkpt lat="43.5456" lon="2.31194">
        <ele>257.70362680149</ele>
        <time>2020-11-30T13:58:26Z</time>
      </trkpt>
      <trkpt lat="43.54573" lon="2.31191">
        <ele>257.09458245885</ele>
        <time>2020-11-30T13:58:30Z</time>
      </trkpt>
      <trkpt lat="43.54581" lon="2.31192">
        <ele>255.43811849584</ele>
        <time>2020-11-30T13:58:49Z</time>
      </trkpt>
      <trkpt lat="43.54589" lon="2.31195">
        <ele>255.08109341855</ele>
        <time>2020-11-30T13:58:55Z</time>
      </trkpt>
      <trkpt lat="43.54596" lon="2.31198">
        <ele>255.81879991988</ele>
        <time>2020-11-30T13:59:15Z</time>
      </trkpt>
      <trkpt lat="43.54604" lon="2.31194">
        <ele>257.50561232396</ele>
        <time>2020-11-30T13:59:22Z</time>
      </trkpt>
      <trkpt lat="43.54612" lon="2.3119">
        <ele>257.03541225239</ele>
        <time>2020-11-30T13:59:30Z</time>
      </trkpt>
      <trkpt lat="43.54618" lon="2.31182">
        <ele>256.07898521517</ele>
        <time>2020-11-30T13:59:39Z</time>
      </trkpt>
      <trkpt lat="43.54622" lon="2.31172">
        <ele>254.83779707621</ele>
        <time>2020-11-30T14:00:03Z</time>
      </trkpt>
      <trkpt lat="43.54628" lon="2.31166">
        <ele>252.22704320606</ele>
        <time>2020-11-30T14:00:26Z</time>
      </trkpt>
      <trkpt lat="43.54637" lon="2.31162">
        <ele>249.16979253859</ele>
        <time>2020-11-30T14:00:31Z</time>
      </trkpt>
      <trkpt lat="43.54642" lon="2.31155">
        <ele>249.86863831017</ele>
        <time>2020-11-30T14:00:37Z</time>
      </trkpt>
      <trkpt lat="43.54647" lon="2.31146">
        <ele>250.83014499554</ele>
        <time>2020-11-30T14:00:43Z</time>
      </trkpt>
      <trkpt lat="43.54646" lon="2.31134">
        <ele>251.74921098281</ele>
        <time>2020-11-30T14:01:02Z</time>
      </trkpt>
      <trkpt lat="43.54645" lon="2.31122">
        <ele>253.45986708832</ele>
        <time>2020-11-30T14:01:55Z</time>
      </trkpt>
      <trkpt lat="43.54645" lon="2.31112">
        <ele>258.52169524065</ele>
        <time>2020-11-30T14:02:14Z</time>
      </trkpt>
      <trkpt lat="43.54644" lon="2.311">
        <ele>257.10160733234</ele>
        <time>2020-11-30T14:02:20Z</time>
      </trkpt>
      <trkpt lat="43.54643" lon="2.31089">
        <ele>255.23419892824</ele>
        <time>2020-11-30T14:02:28Z</time>
      </trkpt>
      <trkpt lat="43.54642" lon="2.31077">
        <ele>253.52164213076</ele>
        <time>2020-11-30T14:02:37Z</time>
      </trkpt>
      <trkpt lat="43.54642" lon="2.31065">
        <ele>252.17870728607</ele>
        <time>2020-11-30T14:02:43Z</time>
      </trkpt>
      <trkpt lat="43.54641" lon="2.31053">
        <ele>250.25878957322</ele>
        <time>2020-11-30T14:02:54Z</time>
      </trkpt>
      <trkpt lat="43.54642" lon="2.31041">
        <ele>248.5218244974</ele>
        <time>2020-11-30T14:03:01Z</time>
      </trkpt>
      <trkpt lat="43.5464" lon="2.31029">
        <ele>248.07721394906</ele>
        <time>2020-11-30T14:03:12Z</time>
      </trkpt>
      <trkpt lat="43.54637" lon="2.31019">
        <ele>248.37364758087</ele>
        <time>2020-11-30T14:03:27Z</time>
      </trkpt>
      <trkpt lat="43.54636" lon="2.31007">
        <ele>247.63028761466</ele>
        <time>2020-11-30T14:03:37Z</time>
      </trkpt>
      <trkpt lat="43.54636" lon="2.30997">
        <ele>246.78615450131</ele>
        <time>2020-11-30T14:03:53Z</time>
      </trkpt>
      <trkpt lat="43.54632" lon="2.30987">
        <ele>246.23864949272</ele>
        <time>2020-11-30T14:03:57Z</time>
      </trkpt>
      <trkpt lat="43.54627" lon="2.30997">
        <ele>247.81172180413</ele>
        <time>2020-11-30T14:04:12Z</time>
      </trkpt>
      <trkpt lat="43.54624" lon="2.31006">
        <ele>247.12942876444</ele>
        <time>2020-11-30T14:04:22Z</time>
      </trkpt>
      <trkpt lat="43.5462" lon="2.31017">
        <ele>248.12296912325</ele>
        <time>2020-11-30T14:04:31Z</time>
      </trkpt>
      <trkpt lat="43.54615" lon="2.31026">
        <ele>245.84746464602</ele>
        <time>2020-11-30T14:04:44Z</time>
      </trkpt>
      <trkpt lat="43.5461" lon="2.31017">
        <ele>246.47007699911</ele>
        <time>2020-11-30T14:05:04Z</time>
      </trkpt>
      <trkpt lat="43.5461" lon="2.31005">
        <ele>245.77351379095</ele>
        <time>2020-11-30T14:05:10Z</time>
      </trkpt>
      <trkpt lat="43.54608" lon="2.30994">
        <ele>246.66622915334</ele>
        <time>2020-11-30T14:05:18Z</time>
      </trkpt>
      <trkpt lat="43.54607" lon="2.30982">
        <ele>249.0146210995</ele>
        <time>2020-11-30T14:05:25Z</time>
      </trkpt>
      <trkpt lat="43.54605" lon="2.30971">
        <ele>251.48764602055</ele>
        <time>2020-11-30T14:05:35Z</time>
      </trkpt>
      <trkpt lat="43.54599" lon="2.30962">
        <ele>251.72898745476</ele>
        <time>2020-11-30T14:05:42Z</time>
      </trkpt>
      <trkpt lat="43.54593" lon="2.30954">
        <ele>250.5682000818</ele>
        <time>2020-11-30T14:05:50Z</time>
      </trkpt>
      <trkpt lat="43.54588" lon="2.30945">
        <ele>249.74586775492</ele>
        <time>2020-11-30T14:05:58Z</time>
      </trkpt>
      <trkpt lat="43.54582" lon="2.30936">
        <ele>249.4546337504</ele>
        <time>2020-11-30T14:06:10Z</time>
      </trkpt>
      <trkpt lat="43.54572" lon="2.30926">
        <ele>249.65804642761</ele>
        <time>2020-11-30T14:06:14Z</time>
      </trkpt>
      <trkpt lat="43.54564" lon="2.30917">
        <ele>249.94130801731</ele>
        <time>2020-11-30T14:06:18Z</time>
      </trkpt>
      <trkpt lat="43.54559" lon="2.30909">
        <ele>250.8882351616</ele>
        <time>2020-11-30T14:06:26Z</time>
      </trkpt>
      <trkpt lat="43.54552" lon="2.30901">
        <ele>249.55030298143</ele>
        <time>2020-11-30T14:06:33Z</time>
      </trkpt>
      <trkpt lat="43.54545" lon="2.30895">
        <ele>247.34654719138</ele>
        <time>2020-11-30T14:06:41Z</time>
      </trkpt>
      <trkpt lat="43.5454" lon="2.30886">
        <ele>246.30025689788</ele>
        <time>2020-11-30T14:06:49Z</time>
      </trkpt>
      <trkpt lat="43.54534" lon="2.30879">
        <ele>245.4258961691</ele>
        <time>2020-11-30T14:06:56Z</time>
      </trkpt>
      <trkpt lat="43.54527" lon="2.30872">
        <ele>243.26922302913</ele>
        <time>2020-11-30T14:07:02Z</time>
      </trkpt>
      <trkpt lat="43.54522" lon="2.30862">
        <ele>241.67223776459</ele>
        <time>2020-11-30T14:07:10Z</time>
      </trkpt>
      <trkpt lat="43.54518" lon="2.30852">
        <ele>240.76272694536</ele>
        <time>2020-11-30T14:07:17Z</time>
      </trkpt>
      <trkpt lat="43.54513" lon="2.30841">
        <ele>240.80915707208</ele>
        <time>2020-11-30T14:07:29Z</time>
      </trkpt>
      <trkpt lat="43.54511" lon="2.30831">
        <ele>241.79358171516</ele>
        <time>2020-11-30T14:07:35Z</time>
      </trkpt>
      <trkpt lat="43.54506" lon="2.30821">
        <ele>242.43632441648</ele>
        <time>2020-11-30T14:07:41Z</time>
      </trkpt>
      <trkpt lat="43.54501" lon="2.30811">
        <ele>240.64444481934</ele>
        <time>2020-11-30T14:07:47Z</time>
      </trkpt>
      <trkpt lat="43.54494" lon="2.30805">
        <ele>241.33155739503</ele>
        <time>2020-11-30T14:07:54Z</time>
      </trkpt>
      <trkpt lat="43.54486" lon="2.30804">
        <ele>241.74273517999</ele>
        <time>2020-11-30T14:08:02Z</time>
      </trkpt>
      <trkpt lat="43.54477" lon="2.30806">
        <ele>241.7505360653</ele>
        <time>2020-11-30T14:08:11Z</time>
      </trkpt>
      <trkpt lat="43.54469" lon="2.30809">
        <ele>241.72639550133</ele>
        <time>2020-11-30T14:08:18Z</time>
      </trkpt>
      <trkpt lat="43.54462" lon="2.30809">
        <ele>242.2958566964</ele>
        <time>2020-11-30T14:08:25Z</time>
      </trkpt>
      <trkpt lat="43.54453" lon="2.30811">
        <ele>244.50841830666</ele>
        <time>2020-11-30T14:08:32Z</time>
      </trkpt>
      <trkpt lat="43.54445" lon="2.30813">
        <ele>244.77786717634</ele>
        <time>2020-11-30T14:08:40Z</time>
      </trkpt>
      <trkpt lat="43.54438" lon="2.30818">
        <ele>246.18494499477</ele>
        <time>2020-11-30T14:08:49Z</time>
      </trkpt>
      <trkpt lat="43.5443" lon="2.30821">
        <ele>246.08888476586</ele>
        <time>2020-11-30T14:08:59Z</time>
      </trkpt>
      <trkpt lat="43.54422" lon="2.30822">
        <ele>247.52958337299</ele>
        <time>2020-11-30T14:09:06Z</time>
      </trkpt>
      <trkpt lat="43.54414" lon="2.30822">
        <ele>249.44476330924</ele>
        <time>2020-11-30T14:09:12Z</time>
      </trkpt>
      <trkpt lat="43.54406" lon="2.30822">
        <ele>249.56965053957</ele>
        <time>2020-11-30T14:09:32Z</time>
      </trkpt>
      <trkpt lat="43.54397" lon="2.30824">
        <ele>250.97947586976</ele>
        <time>2020-11-30T14:09:36Z</time>
      </trkpt>
      <trkpt lat="43.54387" lon="2.30824">
        <ele>250.92362871189</ele>
        <time>2020-11-30T14:09:41Z</time>
      </trkpt>
      <trkpt lat="43.54378" lon="2.30825">
        <ele>250.99103526227</ele>
        <time>2020-11-30T14:09:51Z</time>
      </trkpt>
      <trkpt lat="43.5437" lon="2.3083">
        <ele>250.95920779477</ele>
        <time>2020-11-30T14:09:59Z</time>
      </trkpt>
      <trkpt lat="43.54361" lon="2.30833">
        <ele>251.14049266923</ele>
        <time>2020-11-30T14:10:03Z</time>
      </trkpt>
      <trkpt lat="43.54355" lon="2.30838">
        <ele>251.61054328994</ele>
        <time>2020-11-30T14:10:09Z</time>
      </trkpt>
      <trkpt lat="43.54347" lon="2.30845">
        <ele>252.12115253567</ele>
        <time>2020-11-30T14:10:14Z</time>
      </trkpt>
      <trkpt lat="43.54342" lon="2.30852">
        <ele>252.16921457749</ele>
        <time>2020-11-30T14:10:20Z</time>
      </trkpt>
      <trkpt lat="43.54336" lon="2.30859">
        <ele>250.70038508494</ele>
        <time>2020-11-30T14:10:26Z</time>
      </trkpt>
      <trkpt lat="43.54329" lon="2.30866">
        <ele>249.77864623637</ele>
        <time>2020-11-30T14:10:33Z</time>
      </trkpt>
      <trkpt lat="43.54323" lon="2.30874">
        <ele>248.34590953974</ele>
        <time>2020-11-30T14:10:40Z</time>
      </trkpt>
      <trkpt lat="43.54319" lon="2.30884">
        <ele>248.18430228241</ele>
        <time>2020-11-30T14:10:50Z</time>
      </trkpt>
      <trkpt lat="43.54314" lon="2.30894">
        <ele>247.90088513102</ele>
        <time>2020-11-30T14:10:58Z</time>
      </trkpt>
      <trkpt lat="43.5431" lon="2.30904">
        <ele>246.24469047992</ele>
        <time>2020-11-30T14:11:06Z</time>
      </trkpt>
      <trkpt lat="43.54305" lon="2.30913">
        <ele>245.19531219409</ele>
        <time>2020-11-30T14:11:15Z</time>
      </trkpt>
      <trkpt lat="43.54297" lon="2.30916">
        <ele>244.81283440104</ele>
        <time>2020-11-30T14:11:21Z</time>
      </trkpt>
      <trkpt lat="43.5429" lon="2.30911">
        <ele>246.74017366993</ele>
        <time>2020-11-30T14:11:27Z</time>
      </trkpt>
      <trkpt lat="43.54285" lon="2.30901">
        <ele>248.02501147227</ele>
        <time>2020-11-30T14:11:36Z</time>
      </trkpt>
      <trkpt lat="43.54279" lon="2.30891">
        <ele>246.33142765184</ele>
        <time>2020-11-30T14:11:45Z</time>
      </trkpt>
      <trkpt lat="43.54275" lon="2.30882">
        <ele>246.33499979932</ele>
        <time>2020-11-30T14:11:53Z</time>
      </trkpt>
      <trkpt lat="43.54267" lon="2.30876">
        <ele>245.60375867526</ele>
        <time>2020-11-30T14:12:00Z</time>
      </trkpt>
      <trkpt lat="43.54261" lon="2.3087">
        <ele>244.60361897043</ele>
        <time>2020-11-30T14:12:06Z</time>
      </trkpt>
      <trkpt lat="43.54253" lon="2.30867">
        <ele>244.06966172385</ele>
        <time>2020-11-30T14:12:13Z</time>
      </trkpt>
      <trkpt lat="43.54245" lon="2.30863">
        <ele>244.35808318121</ele>
        <time>2020-11-30T14:12:21Z</time>
      </trkpt>
      <trkpt lat="43.54238" lon="2.3086">
        <ele>244.87130789878</ele>
        <time>2020-11-30T14:12:30Z</time>
      </trkpt>
      <trkpt lat="43.54229" lon="2.30858">
        <ele>246.73171069528</ele>
        <time>2020-11-30T14:12:38Z</time>
      </trkpt>
      <trkpt lat="43.54222" lon="2.30853">
        <ele>248.42637027276</ele>
        <time>2020-11-30T14:12:47Z</time>
      </trkpt>
      <trkpt lat="43.54214" lon="2.30849">
        <ele>249.70601711357</ele>
        <time>2020-11-30T14:12:55Z</time>
      </trkpt>
      <trkpt lat="43.54207" lon="2.30844">
        <ele>250.5241807406</ele>
        <time>2020-11-30T14:13:04Z</time>
      </trkpt>
      <trkpt lat="43.54198" lon="2.30839">
        <ele>250.24838877853</ele>
        <time>2020-11-30T14:13:14Z</time>
      </trkpt>
      <trkpt lat="43.54191" lon="2.30836">
        <ele>250.58731894073</ele>
        <time>2020-11-30T14:13:20Z</time>
      </trkpt>
      <trkpt lat="43.54182" lon="2.30833">
        <ele>250.06305716762</ele>
        <time>2020-11-30T14:13:25Z</time>
      </trkpt>
      <trkpt lat="43.54174" lon="2.30832">
        <ele>250.58949997771</ele>
        <time>2020-11-30T14:13:36Z</time>
      </trkpt>
      <trkpt lat="43.54165" lon="2.30831">
        <ele>250.31885967076</ele>
        <time>2020-11-30T14:13:44Z</time>
      </trkpt>
      <trkpt lat="43.54157" lon="2.30829">
        <ele>249.2687156402</ele>
        <time>2020-11-30T14:13:54Z</time>
      </trkpt>
      <trkpt lat="43.54149" lon="2.30828">
        <ele>249.04092100295</ele>
        <time>2020-11-30T14:14:06Z</time>
      </trkpt>
      <trkpt lat="43.54139" lon="2.30825">
        <ele>248.96704333494</ele>
        <time>2020-11-30T14:14:11Z</time>
      </trkpt>
      <trkpt lat="43.54132" lon="2.30825">
        <ele>248.58663898479</ele>
        <time>2020-11-30T14:14:18Z</time>
      </trkpt>
      <trkpt lat="43.54122" lon="2.30825">
        <ele>247.89693626057</ele>
        <time>2020-11-30T14:14:23Z</time>
      </trkpt>
      <trkpt lat="43.54113" lon="2.30824">
        <ele>247.58992871673</ele>
        <time>2020-11-30T14:14:29Z</time>
      </trkpt>
      <trkpt lat="43.54105" lon="2.30821">
        <ele>249.07671006869</ele>
        <time>2020-11-30T14:14:36Z</time>
      </trkpt>
      <trkpt lat="43.54097" lon="2.30816">
        <ele>248.34595922103</ele>
        <time>2020-11-30T14:14:45Z</time>
      </trkpt>
      <trkpt lat="43.5409" lon="2.30812">
        <ele>247.52391559092</ele>
        <time>2020-11-30T14:14:53Z</time>
      </trkpt>
      <trkpt lat="43.54083" lon="2.30806">
        <ele>246.86961749474</ele>
        <time>2020-11-30T14:14:59Z</time>
      </trkpt>
      <trkpt lat="43.54076" lon="2.308">
        <ele>246.68426299503</ele>
        <time>2020-11-30T14:15:06Z</time>
      </trkpt>
      <trkpt lat="43.54069" lon="2.30794">
        <ele>246.87147848212</ele>
        <time>2020-11-30T14:15:12Z</time>
      </trkpt>
      <trkpt lat="43.54061" lon="2.30791">
        <ele>247.30550833452</ele>
        <time>2020-11-30T14:15:18Z</time>
      </trkpt>
      <trkpt lat="43.54053" lon="2.30785">
        <ele>247.13340673551</ele>
        <time>2020-11-30T14:15:29Z</time>
      </trkpt>
      <trkpt lat="43.54046" lon="2.30781">
        <ele>246.59246856863</ele>
        <time>2020-11-30T14:15:39Z</time>
      </trkpt>
      <trkpt lat="43.54039" lon="2.30774">
        <ele>246.03132016318</ele>
        <time>2020-11-30T14:15:49Z</time>
      </trkpt>
      <trkpt lat="43.54032" lon="2.30767">
        <ele>246.63608758654</ele>
        <time>2020-11-30T14:16:00Z</time>
      </trkpt>
      <trkpt lat="43.54029" lon="2.30756">
        <ele>246.65829140542</ele>
        <time>2020-11-30T14:16:10Z</time>
      </trkpt>
      <trkpt lat="43.5402" lon="2.30754">
        <ele>241.55824668186</ele>
        <time>2020-11-30T14:16:19Z</time>
      </trkpt>
      <trkpt lat="43.54013" lon="2.30759">
        <ele>240.09615179006</ele>
        <time>2020-11-30T14:16:28Z</time>
      </trkpt>
      <trkpt lat="43.54006" lon="2.30767">
        <ele>237.87644636771</ele>
        <time>2020-11-30T14:16:41Z</time>
      </trkpt>
      <trkpt lat="43.54" lon="2.30774">
        <ele>237.82072229901</ele>
        <time>2020-11-30T14:16:51Z</time>
      </trkpt>
      <trkpt lat="43.53993" lon="2.30781">
        <ele>238.8107748464</ele>
        <time>2020-11-30T14:17:04Z</time>
      </trkpt>
      <trkpt lat="43.53988" lon="2.30789">
        <ele>236.18247282308</ele>
        <time>2020-11-30T14:17:29Z</time>
      </trkpt>
      <trkpt lat="43.5398" lon="2.30798">
        <ele>236.02967390013</ele>
        <time>2020-11-30T14:17:33Z</time>
      </trkpt>
      <trkpt lat="43.53974" lon="2.30806">
        <ele>235.16619935212</ele>
        <time>2020-11-30T14:17:49Z</time>
      </trkpt>
      <trkpt lat="43.53964" lon="2.30815">
        <ele>235.97598929049</ele>
        <time>2020-11-30T14:17:54Z</time>
      </trkpt>
      <trkpt lat="43.53956" lon="2.30819">
        <ele>237.70845720089</ele>
        <time>2020-11-30T14:17:58Z</time>
      </trkpt>
      <trkpt lat="43.53948" lon="2.30819">
        <ele>238.29736198403</ele>
        <time>2020-11-30T14:18:06Z</time>
      </trkpt>
      <trkpt lat="43.53941" lon="2.30812">
        <ele>238.06726210593</ele>
        <time>2020-11-30T14:18:11Z</time>
      </trkpt>
      <trkpt lat="43.53934" lon="2.30803">
        <ele>238.75552394461</ele>
        <time>2020-11-30T14:18:19Z</time>
      </trkpt>
      <trkpt lat="43.53934" lon="2.30792">
        <ele>238.79262210849</ele>
        <time>2020-11-30T14:18:27Z</time>
      </trkpt>
      <trkpt lat="43.53934" lon="2.3078">
        <ele>236.27917575362</ele>
        <time>2020-11-30T14:18:35Z</time>
      </trkpt>
      <trkpt lat="43.53937" lon="2.30769">
        <ele>237.65264298918</ele>
        <time>2020-11-30T14:18:41Z</time>
      </trkpt>
      <trkpt lat="43.53937" lon="2.30758">
        <ele>240.36975643811</ele>
        <time>2020-11-30T14:18:48Z</time>
      </trkpt>
      <trkpt lat="43.53938" lon="2.30746">
        <ele>241.27059082097</ele>
        <time>2020-11-30T14:18:56Z</time>
      </trkpt>
      <trkpt lat="43.53938" lon="2.30735">
        <ele>239.73376490142</ele>
        <time>2020-11-30T14:19:05Z</time>
      </trkpt>
      <trkpt lat="43.53938" lon="2.30723">
        <ele>239.202177208</ele>
        <time>2020-11-30T14:19:11Z</time>
      </trkpt>
      <trkpt lat="43.53939" lon="2.30712">
        <ele>239.76633919353</ele>
        <time>2020-11-30T14:19:17Z</time>
      </trkpt>
      <trkpt lat="43.53939" lon="2.307">
        <ele>240.25119372923</ele>
        <time>2020-11-30T14:19:24Z</time>
      </trkpt>
      <trkpt lat="43.53939" lon="2.30689">
        <ele>242.16591716327</ele>
        <time>2020-11-30T14:19:30Z</time>
      </trkpt>
      <trkpt lat="43.53937" lon="2.30677">
        <ele>243.29429388432</ele>
        <time>2020-11-30T14:19:39Z</time>
      </trkpt>
      <trkpt lat="43.53938" lon="2.30666">
        <ele>243.02280716823</ele>
        <time>2020-11-30T14:19:46Z</time>
      </trkpt>
      <trkpt lat="43.53935" lon="2.30655">
        <ele>239.95231077563</ele>
        <time>2020-11-30T14:19:53Z</time>
      </trkpt>
      <trkpt lat="43.53934" lon="2.30644">
        <ele>238.20564696585</ele>
        <time>2020-11-30T14:20:00Z</time>
      </trkpt>
      <trkpt lat="43.53933" lon="2.30633">
        <ele>237.67614624796</ele>
        <time>2020-11-30T14:20:07Z</time>
      </trkpt>
      <trkpt lat="43.53932" lon="2.30622">
        <ele>237.57926722771</ele>
        <time>2020-11-30T14:20:15Z</time>
      </trkpt>
      <trkpt lat="43.53931" lon="2.30611">
        <ele>238.32455698826</ele>
        <time>2020-11-30T14:20:23Z</time>
      </trkpt>
      <trkpt lat="43.53929" lon="2.306">
        <ele>238.6193986228</ele>
        <time>2020-11-30T14:20:30Z</time>
      </trkpt>
      <trkpt lat="43.53928" lon="2.30589">
        <ele>237.99343833156</ele>
        <time>2020-11-30T14:20:35Z</time>
      </trkpt>
      <trkpt lat="43.53926" lon="2.30577">
        <ele>238.1990572017</ele>
        <time>2020-11-30T14:20:42Z</time>
      </trkpt>
      <trkpt lat="43.53922" lon="2.30567">
        <ele>236.76769124488</ele>
        <time>2020-11-30T14:20:49Z</time>
      </trkpt>
      <trkpt lat="43.53919" lon="2.30557">
        <ele>235.518671732</ele>
        <time>2020-11-30T14:20:55Z</time>
      </trkpt>
      <trkpt lat="43.53915" lon="2.30547">
        <ele>235.54369769622</ele>
        <time>2020-11-30T14:21:03Z</time>
      </trkpt>
      <trkpt lat="43.53909" lon="2.30538">
        <ele>236.57794611276</ele>
        <time>2020-11-30T14:21:10Z</time>
      </trkpt>
      <trkpt lat="43.53904" lon="2.30528">
        <ele>237.88382680226</ele>
        <time>2020-11-30T14:21:18Z</time>
      </trkpt>
      <trkpt lat="43.539" lon="2.30518">
        <ele>238.39558794181</ele>
        <time>2020-11-30T14:21:26Z</time>
      </trkpt>
      <trkpt lat="43.53895" lon="2.3051">
        <ele>239.43867450796</ele>
        <time>2020-11-30T14:21:35Z</time>
      </trkpt>
      <trkpt lat="43.53892" lon="2.305">
        <ele>239.90528987466</ele>
        <time>2020-11-30T14:21:42Z</time>
      </trkpt>
      <trkpt lat="43.53888" lon="2.30489">
        <ele>240.43376630323</ele>
        <time>2020-11-30T14:21:49Z</time>
      </trkpt>
      <trkpt lat="43.53882" lon="2.30479">
        <ele>241.75630074782</ele>
        <time>2020-11-30T14:21:56Z</time>
      </trkpt>
      <trkpt lat="43.53878" lon="2.30469">
        <ele>241.57211745599</ele>
        <time>2020-11-30T14:22:05Z</time>
      </trkpt>
      <trkpt lat="43.53873" lon="2.30459">
        <ele>239.15945048276</ele>
        <time>2020-11-30T14:22:12Z</time>
      </trkpt>
      <trkpt lat="43.53867" lon="2.30452">
        <ele>237.83184415108</ele>
        <time>2020-11-30T14:22:18Z</time>
      </trkpt>
      <trkpt lat="43.5386" lon="2.30445">
        <ele>237.15996659832</ele>
        <time>2020-11-30T14:22:24Z</time>
      </trkpt>
      <trkpt lat="43.53855" lon="2.30436">
        <ele>237.3733133437</ele>
        <time>2020-11-30T14:22:33Z</time>
      </trkpt>
      <trkpt lat="43.53849" lon="2.30427">
        <ele>237.24504261186</ele>
        <time>2020-11-30T14:22:42Z</time>
      </trkpt>
      <trkpt lat="43.53841" lon="2.3042">
        <ele>237.39850188448</ele>
        <time>2020-11-30T14:22:54Z</time>
      </trkpt>
      <trkpt lat="43.53837" lon="2.30413">
        <ele>236.33396853337</ele>
        <time>2020-11-30T14:23:05Z</time>
      </trkpt>
      <trkpt lat="43.5383" lon="2.30406">
        <ele>235.68897663646</ele>
        <time>2020-11-30T14:23:11Z</time>
      </trkpt>
      <trkpt lat="43.53824" lon="2.30399">
        <ele>236.91324069559</ele>
        <time>2020-11-30T14:23:17Z</time>
      </trkpt>
      <trkpt lat="43.53817" lon="2.30394">
        <ele>237.56645065547</ele>
        <time>2020-11-30T14:23:22Z</time>
      </trkpt>
      <trkpt lat="43.53811" lon="2.30387">
        <ele>238.64684592953</ele>
        <time>2020-11-30T14:23:32Z</time>
      </trkpt>
      <trkpt lat="43.53804" lon="2.3038">
        <ele>238.84912128707</ele>
        <time>2020-11-30T14:23:39Z</time>
      </trkpt>
      <trkpt lat="43.53796" lon="2.30371">
        <ele>238.43464542274</ele>
        <time>2020-11-30T14:23:43Z</time>
      </trkpt>
      <trkpt lat="43.53789" lon="2.30363">
        <ele>237.66199297544</ele>
        <time>2020-11-30T14:23:48Z</time>
      </trkpt>
      <trkpt lat="43.53781" lon="2.30357">
        <ele>237.51525682373</ele>
        <time>2020-11-30T14:23:54Z</time>
      </trkpt>
      <trkpt lat="43.53773" lon="2.30354">
        <ele>235.64717568988</ele>
        <time>2020-11-30T14:24:01Z</time>
      </trkpt>
      <trkpt lat="43.53764" lon="2.30354">
        <ele>235.07581814881</ele>
        <time>2020-11-30T14:24:10Z</time>
      </trkpt>
      <trkpt lat="43.53756" lon="2.30352">
        <ele>234.16796356092</ele>
        <time>2020-11-30T14:24:18Z</time>
      </trkpt>
      <trkpt lat="43.53747" lon="2.30353">
        <ele>234.66893210287</ele>
        <time>2020-11-30T14:24:27Z</time>
      </trkpt>
      <trkpt lat="43.53739" lon="2.30357">
        <ele>234.04395637428</ele>
        <time>2020-11-30T14:24:37Z</time>
      </trkpt>
      <trkpt lat="43.53731" lon="2.3036">
        <ele>233.85570149316</ele>
        <time>2020-11-30T14:24:45Z</time>
      </trkpt>
      <trkpt lat="43.53725" lon="2.30366">
        <ele>233.62143421211</ele>
        <time>2020-11-30T14:24:51Z</time>
      </trkpt>
      <trkpt lat="43.53718" lon="2.30372">
        <ele>232.92989416888</ele>
        <time>2020-11-30T14:24:56Z</time>
      </trkpt>
      <trkpt lat="43.5371" lon="2.30377">
        <ele>232.98356948485</ele>
        <time>2020-11-30T14:25:01Z</time>
      </trkpt>
      <trkpt lat="43.53703" lon="2.30382">
        <ele>232.8240405806</ele>
        <time>2020-11-30T14:25:07Z</time>
      </trkpt>
      <trkpt lat="43.53696" lon="2.30389">
        <ele>232.53013337165</ele>
        <time>2020-11-30T14:25:14Z</time>
      </trkpt>
      <trkpt lat="43.53691" lon="2.30397">
        <ele>233.69136333302</ele>
        <time>2020-11-30T14:25:22Z</time>
      </trkpt>
      <trkpt lat="43.53685" lon="2.30404">
        <ele>235.15294354505</ele>
        <time>2020-11-30T14:25:29Z</time>
      </trkpt>
      <trkpt lat="43.5368" lon="2.30414">
        <ele>236.24531100356</ele>
        <time>2020-11-30T14:25:39Z</time>
      </trkpt>
      <trkpt lat="43.53678" lon="2.30425">
        <ele>238.34181034183</ele>
        <time>2020-11-30T14:25:49Z</time>
      </trkpt>
      <trkpt lat="43.53676" lon="2.30436">
        <ele>238.75377697959</ele>
        <time>2020-11-30T14:25:56Z</time>
      </trkpt>
      <trkpt lat="43.53672" lon="2.30446">
        <ele>238.34662668976</ele>
        <time>2020-11-30T14:26:03Z</time>
      </trkpt>
      <trkpt lat="43.53669" lon="2.30456">
        <ele>240.59458429192</ele>
        <time>2020-11-30T14:26:11Z</time>
      </trkpt>
      <trkpt lat="43.53665" lon="2.30466">
        <ele>240.15466597588</ele>
        <time>2020-11-30T14:26:18Z</time>
      </trkpt>
      <trkpt lat="43.53661" lon="2.30476">
        <ele>238.03002825846</ele>
        <time>2020-11-30T14:26:24Z</time>
      </trkpt>
      <trkpt lat="43.53658" lon="2.30488">
        <ele>235.85705172979</ele>
        <time>2020-11-30T14:26:29Z</time>
      </trkpt>
      <trkpt lat="43.53655" lon="2.30499">
        <ele>231.64698929024</ele>
        <time>2020-11-30T14:26:34Z</time>
      </trkpt>
      <trkpt lat="43.53649" lon="2.30508">
        <ele>230.86388957306</ele>
        <time>2020-11-30T14:26:40Z</time>
      </trkpt>
      <trkpt lat="43.53641" lon="2.30514">
        <ele>234.01905051069</ele>
        <time>2020-11-30T14:26:53Z</time>
      </trkpt>
      <trkpt lat="43.53634" lon="2.30517">
        <ele>235.59201827287</ele>
        <time>2020-11-30T14:27:00Z</time>
      </trkpt>
      <trkpt lat="43.53627" lon="2.30518">
        <ele>235.75477675445</ele>
        <time>2020-11-30T14:27:07Z</time>
      </trkpt>
      <trkpt lat="43.53618" lon="2.30518">
        <ele>237.92511627937</ele>
        <time>2020-11-30T14:27:11Z</time>
      </trkpt>
      <trkpt lat="43.53609" lon="2.30519">
        <ele>238.77532064129</ele>
        <time>2020-11-30T14:27:18Z</time>
      </trkpt>
      <trkpt lat="43.53601" lon="2.30521">
        <ele>237.80636623233</ele>
        <time>2020-11-30T14:27:25Z</time>
      </trkpt>
      <trkpt lat="43.53592" lon="2.30519">
        <ele>237.32230673334</ele>
        <time>2020-11-30T14:27:31Z</time>
      </trkpt>
      <trkpt lat="43.53584" lon="2.30518">
        <ele>236.1272916873</ele>
        <time>2020-11-30T14:27:37Z</time>
      </trkpt>
      <trkpt lat="43.53576" lon="2.30517">
        <ele>235.93390168566</ele>
        <time>2020-11-30T14:27:42Z</time>
      </trkpt>
      <trkpt lat="43.53568" lon="2.30517">
        <ele>236.87172369192</ele>
        <time>2020-11-30T14:27:49Z</time>
      </trkpt>
      <trkpt lat="43.53559" lon="2.30515">
        <ele>238.44643463304</ele>
        <time>2020-11-30T14:28:01Z</time>
      </trkpt>
      <trkpt lat="43.53552" lon="2.30513">
        <ele>239.15849941791</ele>
        <time>2020-11-30T14:28:14Z</time>
      </trkpt>
      <trkpt lat="43.53543" lon="2.3051">
        <ele>239.99041184969</ele>
        <time>2020-11-30T14:28:20Z</time>
      </trkpt>
      <trkpt lat="43.53534" lon="2.30511">
        <ele>240.37112454112</ele>
        <time>2020-11-30T14:28:27Z</time>
      </trkpt>
      <trkpt lat="43.53526" lon="2.30511">
        <ele>239.37313561838</ele>
        <time>2020-11-30T14:28:38Z</time>
      </trkpt>
      <trkpt lat="43.53519" lon="2.30507">
        <ele>238.29703239772</ele>
        <time>2020-11-30T14:28:50Z</time>
      </trkpt>
      <trkpt lat="43.53511" lon="2.30506">
        <ele>239.24321331205</ele>
        <time>2020-11-30T14:28:56Z</time>
      </trkpt>
      <trkpt lat="43.53503" lon="2.30502">
        <ele>241.30321967841</ele>
        <time>2020-11-30T14:29:03Z</time>
      </trkpt>
      <trkpt lat="43.53496" lon="2.30496">
        <ele>241.34311154557</ele>
        <time>2020-11-30T14:29:09Z</time>
      </trkpt>
      <trkpt lat="43.53489" lon="2.30492">
        <ele>240.37234889894</ele>
        <time>2020-11-30T14:29:15Z</time>
      </trkpt>
      <trkpt lat="43.53482" lon="2.30486">
        <ele>239.13634006807</ele>
        <time>2020-11-30T14:29:22Z</time>
      </trkpt>
      <trkpt lat="43.53476" lon="2.3048">
        <ele>238.93203167728</ele>
        <time>2020-11-30T14:29:29Z</time>
      </trkpt>
      <trkpt lat="43.53469" lon="2.30473">
        <ele>238.75894605127</ele>
        <time>2020-11-30T14:29:36Z</time>
      </trkpt>
      <trkpt lat="43.53462" lon="2.30466">
        <ele>237.97887240231</ele>
        <time>2020-11-30T14:29:43Z</time>
      </trkpt>
      <trkpt lat="43.53455" lon="2.3046">
        <ele>236.88058851064</ele>
        <time>2020-11-30T14:29:49Z</time>
      </trkpt>
      <trkpt lat="43.53448" lon="2.30453">
        <ele>235.96969389098</ele>
        <time>2020-11-30T14:29:55Z</time>
      </trkpt>
      <trkpt lat="43.5344" lon="2.30448">
        <ele>235.9487595274</ele>
        <time>2020-11-30T14:30:02Z</time>
      </trkpt>
      <trkpt lat="43.53433" lon="2.30442">
        <ele>235.84937412626</ele>
        <time>2020-11-30T14:30:10Z</time>
      </trkpt>
      <trkpt lat="43.53425" lon="2.30435">
        <ele>236.36017379725</ele>
        <time>2020-11-30T14:30:18Z</time>
      </trkpt>
      <trkpt lat="43.53419" lon="2.30428">
        <ele>237.17688902605</ele>
        <time>2020-11-30T14:30:25Z</time>
      </trkpt>
      <trkpt lat="43.53412" lon="2.30422">
        <ele>237.70887760101</ele>
        <time>2020-11-30T14:30:31Z</time>
      </trkpt>
      <trkpt lat="43.53406" lon="2.30416">
        <ele>237.55127401278</ele>
        <time>2020-11-30T14:30:37Z</time>
      </trkpt>
      <trkpt lat="43.53399" lon="2.3041">
        <ele>237.49759399118</ele>
        <time>2020-11-30T14:30:44Z</time>
      </trkpt>
      <trkpt lat="43.53392" lon="2.30404">
        <ele>238.5364052524</ele>
        <time>2020-11-30T14:30:51Z</time>
      </trkpt>
      <trkpt lat="43.53386" lon="2.30397">
        <ele>238.14584222565</ele>
        <time>2020-11-30T14:30:58Z</time>
      </trkpt>
      <trkpt lat="43.5338" lon="2.3039">
        <ele>238.91078929186</ele>
        <time>2020-11-30T14:31:07Z</time>
      </trkpt>
      <trkpt lat="43.53372" lon="2.30383">
        <ele>239.70880814709</ele>
        <time>2020-11-30T14:31:15Z</time>
      </trkpt>
      <trkpt lat="43.53366" lon="2.30377">
        <ele>239.87882179669</ele>
        <time>2020-11-30T14:31:22Z</time>
      </trkpt>
      <trkpt lat="43.53359" lon="2.30372">
        <ele>239.39332820527</ele>
        <time>2020-11-30T14:31:30Z</time>
      </trkpt>
      <trkpt lat="43.53351" lon="2.30368">
        <ele>239.2272418564</ele>
        <time>2020-11-30T14:31:36Z</time>
      </trkpt>
      <trkpt lat="43.53345" lon="2.30362">
        <ele>237.7504871384</ele>
        <time>2020-11-30T14:31:41Z</time>
      </trkpt>
      <trkpt lat="43.53338" lon="2.30357">
        <ele>236.33559092118</ele>
        <time>2020-11-30T14:31:47Z</time>
      </trkpt>
      <trkpt lat="43.53329" lon="2.30352">
        <ele>235.43083140151</ele>
        <time>2020-11-30T14:31:55Z</time>
      </trkpt>
      <trkpt lat="43.53323" lon="2.30347">
        <ele>233.48330625655</ele>
        <time>2020-11-30T14:32:01Z</time>
      </trkpt>
      <trkpt lat="43.53315" lon="2.30342">
        <ele>230.78705589809</ele>
        <time>2020-11-30T14:32:09Z</time>
      </trkpt>
      <trkpt lat="43.53307" lon="2.30337">
        <ele>229.21403884097</ele>
        <time>2020-11-30T14:32:17Z</time>
      </trkpt>
      <trkpt lat="43.53299" lon="2.30333">
        <ele>229.49046881729</ele>
        <time>2020-11-30T14:32:37Z</time>
      </trkpt>
      <trkpt lat="43.53291" lon="2.30335">
        <ele>229.60713950408</ele>
        <time>2020-11-30T14:32:45Z</time>
      </trkpt>
      <trkpt lat="43.53284" lon="2.30342">
        <ele>229.4715687812</ele>
        <time>2020-11-30T14:32:53Z</time>
      </trkpt>
      <trkpt lat="43.53277" lon="2.30348">
        <ele>230.13453514314</ele>
        <time>2020-11-30T14:32:59Z</time>
      </trkpt>
      <trkpt lat="43.5327" lon="2.30354">
        <ele>230.25965452038</ele>
        <time>2020-11-30T14:33:08Z</time>
      </trkpt>
      <trkpt lat="43.53262" lon="2.3036">
        <ele>228.40863824459</ele>
        <time>2020-11-30T14:33:16Z</time>
      </trkpt>
      <trkpt lat="43.53254" lon="2.30363">
        <ele>227.76097078984</ele>
        <time>2020-11-30T14:33:22Z</time>
      </trkpt>
      <trkpt lat="43.53246" lon="2.30367">
        <ele>226.10196799084</ele>
        <time>2020-11-30T14:33:29Z</time>
      </trkpt>
      <trkpt lat="43.53239" lon="2.3037">
        <ele>225.05309427514</ele>
        <time>2020-11-30T14:33:35Z</time>
      </trkpt>
      <trkpt lat="43.53231" lon="2.30373">
        <ele>224.57736995736</ele>
        <time>2020-11-30T14:33:41Z</time>
      </trkpt>
      <trkpt lat="43.53223" lon="2.30373">
        <ele>223.79559147421</ele>
        <time>2020-11-30T14:33:49Z</time>
      </trkpt>
      <trkpt lat="43.53215" lon="2.30373">
        <ele>223.09164649119</ele>
        <time>2020-11-30T14:33:56Z</time>
      </trkpt>
      <trkpt lat="43.53206" lon="2.30373">
        <ele>222.20682082199</ele>
        <time>2020-11-30T14:34:04Z</time>
      </trkpt>
      <trkpt lat="43.53198" lon="2.30371">
        <ele>221.9564264928</ele>
        <time>2020-11-30T14:34:10Z</time>
      </trkpt>
      <trkpt lat="43.5319" lon="2.3037">
        <ele>221.26010284308</ele>
        <time>2020-11-30T14:34:15Z</time>
      </trkpt>
      <trkpt lat="43.53183" lon="2.30366">
        <ele>218.79308783504</ele>
        <time>2020-11-30T14:34:21Z</time>
      </trkpt>
      <trkpt lat="43.53175" lon="2.30361">
        <ele>216.23499116621</ele>
        <time>2020-11-30T14:34:27Z</time>
      </trkpt>
      <trkpt lat="43.53167" lon="2.30355">
        <ele>215.01601420306</ele>
        <time>2020-11-30T14:34:32Z</time>
      </trkpt>
      <trkpt lat="43.5316" lon="2.30351">
        <ele>213.04037166998</ele>
        <time>2020-11-30T14:34:39Z</time>
      </trkpt>
      <trkpt lat="43.53156" lon="2.30339">
        <ele>210.79004014056</ele>
        <time>2020-11-30T14:34:48Z</time>
      </trkpt>
      <trkpt lat="43.53154" lon="2.30328">
        <ele>209.38322666571</ele>
        <time>2020-11-30T14:34:55Z</time>
      </trkpt>
      <trkpt lat="43.5315" lon="2.30317">
        <ele>209.31483679103</ele>
        <time>2020-11-30T14:35:05Z</time>
      </trkpt>
      <trkpt lat="43.53146" lon="2.30308">
        <ele>208.90937938401</ele>
        <time>2020-11-30T14:35:12Z</time>
      </trkpt>
      <trkpt lat="43.53144" lon="2.30296">
        <ele>209.25796244135</ele>
        <time>2020-11-30T14:35:21Z</time>
      </trkpt>
      <trkpt lat="43.53144" lon="2.30284">
        <ele>208.76048377665</ele>
        <time>2020-11-30T14:35:29Z</time>
      </trkpt>
      <trkpt lat="43.5314" lon="2.30273">
        <ele>209.90839068521</ele>
        <time>2020-11-30T14:35:37Z</time>
      </trkpt>
      <trkpt lat="43.53137" lon="2.30263">
        <ele>209.43816869531</ele>
        <time>2020-11-30T14:35:44Z</time>
      </trkpt>
      <trkpt lat="43.53135" lon="2.30252">
        <ele>210.95544269998</ele>
        <time>2020-11-30T14:35:51Z</time>
      </trkpt>
      <trkpt lat="43.53133" lon="2.30241">
        <ele>211.28603325994</ele>
        <time>2020-11-30T14:35:59Z</time>
      </trkpt>
      <trkpt lat="43.5313" lon="2.3023">
        <ele>210.63017534347</ele>
        <time>2020-11-30T14:36:07Z</time>
      </trkpt>
      <trkpt lat="43.53125" lon="2.3022">
        <ele>210.70067128691</ele>
        <time>2020-11-30T14:36:18Z</time>
      </trkpt>
      <trkpt lat="43.53121" lon="2.3021">
        <ele>212.35386809567</ele>
        <time>2020-11-30T14:36:27Z</time>
      </trkpt>
      <trkpt lat="43.53118" lon="2.30199">
        <ele>210.18137619938</ele>
        <time>2020-11-30T14:36:33Z</time>
      </trkpt>
      <trkpt lat="43.53114" lon="2.3019">
        <ele>207.73232818639</ele>
        <time>2020-11-30T14:36:39Z</time>
      </trkpt>
      <trkpt lat="43.5311" lon="2.3018">
        <ele>207.89545333229</ele>
        <time>2020-11-30T14:36:46Z</time>
      </trkpt>
      <trkpt lat="43.53103" lon="2.30174">
        <ele>207.76501760796</ele>
        <time>2020-11-30T14:36:56Z</time>
      </trkpt>
      <trkpt lat="43.53097" lon="2.30165">
        <ele>206.32099430314</ele>
        <time>2020-11-30T14:37:02Z</time>
      </trkpt>
      <trkpt lat="43.53089" lon="2.30159">
        <ele>206.28122304728</ele>
        <time>2020-11-30T14:37:12Z</time>
      </trkpt>
      <trkpt lat="43.53084" lon="2.30149">
        <ele>207.77834422774</ele>
        <time>2020-11-30T14:37:22Z</time>
      </trkpt>
      <trkpt lat="43.53078" lon="2.30142">
        <ele>208.41569888441</ele>
        <time>2020-11-30T14:37:31Z</time>
      </trkpt>
      <trkpt lat="43.53071" lon="2.30134">
        <ele>207.30421166653</ele>
        <time>2020-11-30T14:37:40Z</time>
      </trkpt>
      <trkpt lat="43.53066" lon="2.30126">
        <ele>206.92061298548</ele>
        <time>2020-11-30T14:37:47Z</time>
      </trkpt>
      <trkpt lat="43.53059" lon="2.30118">
        <ele>206.63180050779</ele>
        <time>2020-11-30T14:37:53Z</time>
      </trkpt>
      <trkpt lat="43.53052" lon="2.3011">
        <ele>205.31736850679</ele>
        <time>2020-11-30T14:38:02Z</time>
      </trkpt>
      <trkpt lat="43.53045" lon="2.30102">
        <ele>203.78685393939</ele>
        <time>2020-11-30T14:38:12Z</time>
      </trkpt>
      <trkpt lat="43.53037" lon="2.30099">
        <ele>204.48508878073</ele>
        <time>2020-11-30T14:38:21Z</time>
      </trkpt>
      <trkpt lat="43.53029" lon="2.30098">
        <ele>204.24566726158</ele>
        <time>2020-11-30T14:38:27Z</time>
      </trkpt>
      <trkpt lat="43.53021" lon="2.30094">
        <ele>202.41869339154</ele>
        <time>2020-11-30T14:38:43Z</time>
      </trkpt>
      <trkpt lat="43.53015" lon="2.30094">
        <ele>202.56947584656</ele>
        <time>2020-11-30T14:39:00Z</time>
      </trkpt>
      <trkpt lat="43.53" lon="2.30087">
        <ele>202.52365061049</ele>
        <time>2020-11-30T14:39:04Z</time>
      </trkpt>
      <trkpt lat="43.52987" lon="2.30083">
        <ele>201.61492281464</ele>
        <time>2020-11-30T14:39:09Z</time>
      </trkpt>
      <trkpt lat="43.52979" lon="2.3008">
        <ele>202.34282807324</ele>
        <time>2020-11-30T14:39:15Z</time>
      </trkpt>
      <trkpt lat="43.5297" lon="2.30076">
        <ele>202.93683454383</ele>
        <time>2020-11-30T14:39:24Z</time>
      </trkpt>
      <trkpt lat="43.52963" lon="2.30075">
        <ele>201.20841289344</ele>
        <time>2020-11-30T14:39:35Z</time>
      </trkpt>
      <trkpt lat="43.52954" lon="2.30074">
        <ele>200.34990898927</ele>
        <time>2020-11-30T14:39:40Z</time>
      </trkpt>
      <trkpt lat="43.52945" lon="2.30074">
        <ele>198.6060272373</ele>
        <time>2020-11-30T14:39:52Z</time>
      </trkpt>
      <trkpt lat="43.52934" lon="2.30074">
        <ele>197.64470071779</ele>
        <time>2020-11-30T14:39:57Z</time>
      </trkpt>
      <trkpt lat="43.52926" lon="2.30077">
        <ele>197.3408560334</ele>
        <time>2020-11-30T14:40:05Z</time>
      </trkpt>
      <trkpt lat="43.52919" lon="2.30079">
        <ele>195.29800167341</ele>
        <time>2020-11-30T14:40:12Z</time>
      </trkpt>
      <trkpt lat="43.5291" lon="2.30082">
        <ele>194.05590809758</ele>
        <time>2020-11-30T14:40:20Z</time>
      </trkpt>
      <trkpt lat="43.52903" lon="2.30085">
        <ele>194.16964757795</ele>
        <time>2020-11-30T14:40:28Z</time>
      </trkpt>
      <trkpt lat="43.52894" lon="2.30087">
        <ele>192.85864479208</ele>
        <time>2020-11-30T14:40:36Z</time>
      </trkpt>
      <trkpt lat="43.52886" lon="2.30088">
        <ele>193.20446088432</ele>
        <time>2020-11-30T14:40:42Z</time>
      </trkpt>
      <trkpt lat="43.52878" lon="2.30092">
        <ele>190.38497175941</ele>
        <time>2020-11-30T14:40:50Z</time>
      </trkpt>
      <trkpt lat="43.5287" lon="2.30096">
        <ele>189.53408563017</ele>
        <time>2020-11-30T14:40:59Z</time>
      </trkpt>
      <trkpt lat="43.52863" lon="2.30101">
        <ele>189.52385405152</ele>
        <time>2020-11-30T14:41:06Z</time>
      </trkpt>
      <trkpt lat="43.52855" lon="2.30106">
        <ele>188.43930303183</ele>
        <time>2020-11-30T14:41:12Z</time>
      </trkpt>
      <trkpt lat="43.52848" lon="2.30111">
        <ele>186.93566988375</ele>
        <time>2020-11-30T14:41:19Z</time>
      </trkpt>
      <trkpt lat="43.52839" lon="2.30115">
        <ele>186.07818404774</ele>
        <time>2020-11-30T14:41:27Z</time>
      </trkpt>
      <trkpt lat="43.52832" lon="2.3012">
        <ele>184.66762720124</ele>
        <time>2020-11-30T14:41:34Z</time>
      </trkpt>
      <trkpt lat="43.52824" lon="2.30126">
        <ele>185.27718008486</ele>
        <time>2020-11-30T14:41:41Z</time>
      </trkpt>
      <trkpt lat="43.5282" lon="2.3013">
        <ele>185.54445374526</ele>
        <time>2020-11-30T14:41:54Z</time>
      </trkpt>
      <trkpt lat="43.5282" lon="2.3013">
        <ele>185.54445374526</ele>
        <time>2020-11-30T14:41:55Z</time>
      </trkpt>
    </trkseg>
  </trk>
</gpx>